Time,TemperatureF,DewpointF,PressureIn,WindDirection,WindDirectionDegrees,WindSpeedMPH,WindSpeedGustMPH,Humidity,HourlyPrecipIn,Conditions,Clouds,dailyrainin,SoftwareType,DateUTC
2013-02-04 00:00:00,25.2,22.7,29.97,ESE,112,3.0,10.0,90,0.00,CLR,,0.00,WeatherDisplay:10.37,2013-02-04 05:00:00,
2013-02-04 00:02:00,14.7,12.6,30.15,SSW,209,0.0,0.0,91,0.00,CLR,,0.00,WeatherDisplay:10.37,2013-02-04 05:02:00,
2013-02-04 00:05:00,25.5,23.0,29.96,ESE,112,3.0,8.0,90,0.00,CLR,,0.00,WeatherDisplay:10.37,2013-02-04 05:05:00,
2013-02-04 00:07:00,14.8,12.6,30.15,SSW,209,0.0,0.0,91,0.00,CLR,,0.00,WeatherDisplay:10.37,2013-02-04 05:07:00,
2013-02-04 00:10:00,25.5,23.0,29.96,ESE,112,3.0,8.0,90,0.00,CLR,,0.00,WeatherDisplay:10.37,2013-02-04 05:10:00,
2013-02-04 00:12:00,14.9,12.7,30.14,SSW,209,0.0,0.0,91,0.00,CLR,,0.00,WeatherDisplay:10.37,2013-02-04 05:12:00,
2013-02-04 00:15:00,25.5,23.0,29.96,ESE,112,3.0,8.0,90,0.00,CLR,,0.00,WeatherDisplay:10.37,2013-02-04 05:15:00,
2013-02-04 00:17:00,15.0,12.8,30.15,SSW,209,0.0,0.0,91,0.00,CLR,,0.00,WeatherDisplay:10.37,2013-02-04 05:17:00,
2013-02-04 00:20:00,25.5,23.0,29.96,ESE,112,3.0,8.0,90,0.00,CLR,,0.00,WeatherDisplay:10.37,2013-02-04 05:20:00,
2013-02-04 00:22:00,15.1,12.9,30.14,SSW,209,0.0,0.0,91,0.00,CLR,,0.00,WeatherDisplay:10.37,2013-02-04 05:22:00,
2013-02-04 00:25:00,25.5,23.0,29.96,ESE,112,3.0,8.0,90,0.00,CLR,,0.00,WeatherDisplay:10.37,2013-02-04 05:25:00,
2013-02-04 00:27:00,15.2,13.0,30.15,SSW,209,0.0,0.0,91,0.00,CLR,,0.00,WeatherDisplay:10.37,2013-02-04 05:27:00,
2013-02-04 00:28:00,15.2,13.0,30.15,SSW,209,0.0,0.0,91,0.00,CLR,,0.00,WeatherDisplay:10.37,2013-02-04 05:28:00,
2013-02-04 00:30:00,25.5,23.0,29.96,ESE,112,3.0,8.0,90,0.00,CLR,,0.00,WeatherDisplay:10.37,2013-02-04 05:30:00,
2013-02-04 00:32:00,15.3,13.1,30.14,SSW,209,0.0,0.0,91,0.00,CLR,,0.00,WeatherDisplay:10.37,2013-02-04 05:32:00,
2013-02-04 00:33:00,15.3,13.1,30.14,SSW,209,0.0,0.0,91,0.00,CLR,,0.00,WeatherDisplay:10.37,2013-02-04 05:33:00,
2013-02-04 00:37:00,15.4,13.2,30.14,SSW,209,0.0,0.0,91,0.00,CLR,,0.00,WeatherDisplay:10.37,2013-02-04 05:37:00,
2013-02-04 00:38:00,15.4,13.2,30.14,SSW,209,0.0,0.0,91,0.00,CLR,,0.00,WeatherDisplay:10.37,2013-02-04 05:38:00,
2013-02-04 00:42:00,15.6,13.7,30.14,SSW,209,0.0,0.0,92,0.00,CLR,,0.00,WeatherDisplay:10.37,2013-02-04 05:42:00,
2013-02-04 00:43:00,15.6,13.7,30.14,SSW,209,0.0,0.0,92,0.00,CLR,,0.00,WeatherDisplay:10.37,2013-02-04 05:43:00,
2013-02-04 00:47:00,15.8,13.9,30.14,SSW,209,0.0,0.0,92,0.00,CLR,,0.00,WeatherDisplay:10.37,2013-02-04 05:47:00,
2013-02-04 00:48:00,15.8,13.9,30.14,SSW,209,0.0,0.0,92,0.00,CLR,,0.00,WeatherDisplay:10.37,2013-02-04 05:48:00,
2013-02-04 00:52:00,16.1,14.2,30.14,SSW,209,0.0,0.0,92,0.00,CLR,,0.00,WeatherDisplay:10.37,2013-02-04 05:52:00,
2013-02-04 00:53:00,16.1,14.2,30.14,SSW,209,0.0,0.0,92,0.00,CLR,,0.00,WeatherDisplay:10.37,2013-02-04 05:53:00,
2013-02-04 00:57:00,16.4,14.5,30.14,SSW,209,0.0,0.0,92,0.00,CLR,,0.00,WeatherDisplay:10.37,2013-02-04 05:57:00,
2013-02-04 00:58:00,16.4,14.5,30.14,SSW,209,0.0,0.0,92,0.00,CLR,,0.00,WeatherDisplay:10.37,2013-02-04 05:58:00,
2013-02-04 00:59:00,16.4,14.5,30.14,SSW,209,0.0,0.0,92,0.00,CLR,,0.00,WeatherDisplay:10.37,2013-02-04 05:59:00,
2013-02-04 01:03:00,16.7,14.8,30.13,SSW,209,0.0,0.0,92,0.00,CLR,,0.00,WeatherDisplay:10.37,2013-02-04 06:03:00,
2013-02-04 01:04:00,16.7,14.8,30.13,SSW,209,0.0,0.0,92,0.00,CLR,,0.00,WeatherDisplay:10.37,2013-02-04 06:04:00,
2013-02-04 01:08:00,16.9,15.0,30.14,SSW,209,0.0,0.0,92,0.00,CLR,,0.00,WeatherDisplay:10.37,2013-02-04 06:08:00,
2013-02-04 01:09:00,17.0,15.1,30.14,SSW,209,0.0,0.0,92,0.00,CLR,,0.00,WeatherDisplay:10.37,2013-02-04 06:09:00,
2013-02-04 01:13:00,17.2,15.3,30.14,SSW,209,0.0,0.0,92,0.00,CLR,,0.00,WeatherDisplay:10.37,2013-02-04 06:13:00,
2013-02-04 01:14:00,17.2,15.3,30.14,SSW,209,0.0,0.0,92,0.00,CLR,,0.00,WeatherDisplay:10.37,2013-02-04 06:14:00,
2013-02-04 01:18:00,17.4,15.5,30.14,SSW,209,0.0,0.0,92,0.00,CLR,,0.00,WeatherDisplay:10.37,2013-02-04 06:18:00,
2013-02-04 01:19:00,17.4,15.5,30.14,SSW,209,0.0,0.0,92,0.00,CLR,,0.00,WeatherDisplay:10.37,2013-02-04 06:19:00,
2013-02-04 01:23:00,17.5,15.6,30.14,SSW,209,0.0,0.0,92,0.00,CLR,,0.00,WeatherDisplay:10.37,2013-02-04 06:23:00,
2013-02-04 01:24:00,17.5,15.6,30.14,SSW,209,0.0,0.0,92,0.00,CLR,,0.00,WeatherDisplay:10.37,2013-02-04 06:24:00,
2013-02-04 01:28:00,17.6,15.4,30.14,SSW,209,0.0,0.0,91,0.00,CLR,,0.00,WeatherDisplay:10.37,2013-02-04 06:28:00,
2013-02-04 01:29:00,17.6,15.4,30.14,SSW,209,0.0,0.0,91,0.00,CLR,,0.00,WeatherDisplay:10.37,2013-02-04 06:29:00,
2013-02-04 01:30:00,17.6,15.4,30.14,SSW,209,0.0,0.0,91,0.00,CLR,,0.00,WeatherDisplay:10.37,2013-02-04 06:30:00,
2013-02-04 01:33:00,17.7,15.5,30.14,SSW,209,0.0,0.0,91,0.00,CLR,,0.00,WeatherDisplay:10.37,2013-02-04 06:33:00,
2013-02-04 01:34:00,17.7,15.5,30.14,SSW,209,0.0,0.0,91,0.00,CLR,,0.00,WeatherDisplay:10.37,2013-02-04 06:34:00,
2013-02-04 01:35:00,17.7,15.5,30.14,SSW,209,0.0,0.0,91,0.00,CLR,,0.00,WeatherDisplay:10.37,2013-02-04 06:35:00,
2013-02-04 01:39:00,17.8,15.6,30.14,SSW,209,0.0,0.0,91,0.00,CLR,,0.00,WeatherDisplay:10.37,2013-02-04 06:39:00,
2013-02-04 01:40:00,17.8,15.6,30.14,SSW,209,0.0,0.0,91,0.00,CLR,,0.00,WeatherDisplay:10.37,2013-02-04 06:40:00,
2013-02-04 01:44:00,17.9,15.7,30.14,SSW,209,0.0,0.0,91,0.00,CLR,,0.00,WeatherDisplay:10.37,2013-02-04 06:44:00,
2013-02-04 01:45:00,17.9,16.0,30.14,SSW,209,0.0,0.0,92,0.00,CLR,,0.00,WeatherDisplay:10.37,2013-02-04 06:45:00,
2013-02-04 01:49:00,18.0,16.1,30.14,SSW,209,0.0,0.0,92,0.00,CLR,,0.00,WeatherDisplay:10.37,2013-02-04 06:49:00,
2013-02-04 01:50:00,18.0,16.1,30.14,SSW,209,0.0,0.0,92,0.00,CLR,,0.00,WeatherDisplay:10.37,2013-02-04 06:50:00,
2013-02-04 01:54:00,18.2,16.3,30.13,SSW,209,0.0,0.0,92,0.00,CLR,,0.00,WeatherDisplay:10.37,2013-02-04 06:54:00,
2013-02-04 01:55:00,18.2,16.3,30.13,SSW,209,0.0,0.0,92,0.00,CLR,,0.00,WeatherDisplay:10.37,2013-02-04 06:55:00,
2013-02-04 01:59:00,18.3,16.4,30.13,SSW,209,0.0,0.0,92,0.00,CLR,,0.00,WeatherDisplay:10.37,2013-02-04 06:59:00,
2013-02-04 02:00:00,18.4,16.5,30.13,SSW,209,0.0,0.0,92,0.00,CLR,,0.00,WeatherDisplay:10.37,2013-02-04 07:00:00,
2013-02-04 02:04:00,18.4,16.5,30.13,SSW,209,0.0,0.0,92,0.00,CLR,,0.00,WeatherDisplay:10.37,2013-02-04 07:04:00,
2013-02-04 02:05:00,18.4,16.5,30.13,SSW,209,0.0,0.0,92,0.00,CLR,,0.00,WeatherDisplay:10.37,2013-02-04 07:05:00,
2013-02-04 02:09:00,18.4,16.5,30.13,SSW,209,0.0,0.0,92,0.00,CLR,,0.00,WeatherDisplay:10.37,2013-02-04 07:09:00,
2013-02-04 02:10:00,18.4,16.5,30.13,SSW,209,0.0,0.0,92,0.00,CLR,,0.00,WeatherDisplay:10.37,2013-02-04 07:10:00,
2013-02-04 02:11:00,18.4,16.5,30.13,SSW,209,0.0,0.0,92,0.00,CLR,,0.00,WeatherDisplay:10.37,2013-02-04 07:11:00,
2013-02-04 02:14:00,18.5,16.6,30.13,SSW,209,0.0,0.0,92,0.00,CLR,,0.00,WeatherDisplay:10.37,2013-02-04 07:14:00,
2013-02-04 02:15:00,18.5,16.6,30.13,SSW,209,0.0,0.0,92,0.00,CLR,,0.00,WeatherDisplay:10.37,2013-02-04 07:15:00,
2013-02-04 02:16:00,18.5,16.6,30.13,SSW,209,0.0,0.0,92,0.00,CLR,,0.00,WeatherDisplay:10.37,2013-02-04 07:16:00,
2013-02-04 02:19:00,18.6,16.7,30.13,SSW,209,0.0,0.0,92,0.00,CLR,,0.00,WeatherDisplay:10.37,2013-02-04 07:19:00,
2013-02-04 02:20:00,18.6,16.7,30.13,SSW,209,0.0,0.0,92,0.00,CLR,,0.00,WeatherDisplay:10.37,2013-02-04 07:20:00,
2013-02-04 02:21:00,18.6,16.7,30.13,SSW,209,0.0,0.0,92,0.00,CLR,,0.00,WeatherDisplay:10.37,2013-02-04 07:21:00,
2013-02-04 02:24:00,18.7,16.8,30.12,SSW,209,0.0,0.0,92,0.00,CLR,,0.00,WeatherDisplay:10.37,2013-02-04 07:24:00,
2013-02-04 02:25:00,18.7,16.8,30.12,SSW,209,0.0,0.0,92,0.00,CLR,,0.00,WeatherDisplay:10.37,2013-02-04 07:25:00,
2013-02-04 02:26:00,18.8,16.9,30.12,SSW,209,0.0,0.0,92,0.00,CLR,,0.00,WeatherDisplay:10.37,2013-02-04 07:26:00,
2013-02-04 02:29:00,18.9,17.0,30.12,SSW,209,0.0,0.0,92,0.00,CLR,,0.00,WeatherDisplay:10.37,2013-02-04 07:29:00,
2013-02-04 02:30:00,18.8,16.9,30.12,SSW,209,0.0,0.0,92,0.00,CLR,,0.00,WeatherDisplay:10.37,2013-02-04 07:30:00,
2013-02-04 02:31:00,18.9,17.0,30.12,SSW,209,0.0,0.0,92,0.00,CLR,,0.00,WeatherDisplay:10.37,2013-02-04 07:31:00,
2013-02-04 02:35:00,19.0,17.1,30.13,SSW,209,0.0,0.0,92,0.00,CLR,,0.00,WeatherDisplay:10.37,2013-02-04 07:35:00,
2013-02-04 02:36:00,19.0,17.1,30.12,SSW,209,0.0,0.0,92,0.00,CLR,,0.00,WeatherDisplay:10.37,2013-02-04 07:36:00,
2013-02-04 02:40:00,19.1,17.4,30.12,SSW,209,0.0,0.0,93,0.00,CLR,,0.00,WeatherDisplay:10.37,2013-02-04 07:40:00,
2013-02-04 02:41:00,19.1,17.4,30.12,SSW,209,0.0,0.0,93,0.00,CLR,,0.00,WeatherDisplay:10.37,2013-02-04 07:41:00,
2013-02-04 02:45:00,19.2,17.5,30.12,SSW,209,0.0,0.0,93,0.00,CLR,,0.00,WeatherDisplay:10.37,2013-02-04 07:45:00,
2013-02-04 02:46:00,19.2,17.5,30.12,SSW,209,0.0,0.0,93,0.00,CLR,,0.00,WeatherDisplay:10.37,2013-02-04 07:46:00,
2013-02-04 02:50:00,19.3,17.4,30.13,SSW,209,0.0,0.0,92,0.00,CLR,,0.00,WeatherDisplay:10.37,2013-02-04 07:50:00,
2013-02-04 02:51:00,19.3,17.4,30.13,SSW,209,0.0,0.0,92,0.00,CLR,,0.00,WeatherDisplay:10.37,2013-02-04 07:51:00,
2013-02-04 02:55:00,19.4,17.7,30.13,SSW,209,0.0,0.0,93,0.00,CLR,,0.00,WeatherDisplay:10.37,2013-02-04 07:55:00,
2013-02-04 02:56:00,19.3,17.6,30.13,SSW,209,0.0,0.0,93,0.00,CLR,,0.00,WeatherDisplay:10.37,2013-02-04 07:56:00,
2013-02-04 03:00:00,19.4,17.7,30.12,SSW,209,0.0,0.0,93,0.00,CLR,,0.00,WeatherDisplay:10.37,2013-02-04 08:00:00,
2013-02-04 03:01:00,19.4,17.7,30.12,SSW,209,0.0,0.0,93,0.00,CLR,,0.00,WeatherDisplay:10.37,2013-02-04 08:01:00,
2013-02-04 03:05:00,19.5,17.8,30.12,SSW,209,0.0,0.0,93,0.00,CLR,,0.00,WeatherDisplay:10.37,2013-02-04 08:05:00,
2013-02-04 03:06:00,19.5,17.8,30.12,SSW,209,0.0,0.0,93,0.00,CLR,,0.00,WeatherDisplay:10.37,2013-02-04 08:06:00,
2013-02-04 03:07:00,19.5,17.8,30.12,SSW,209,0.0,0.0,93,0.00,CLR,,0.00,WeatherDisplay:10.37,2013-02-04 08:07:00,
2013-02-04 03:10:00,19.5,17.8,30.12,SSW,209,0.0,0.0,93,0.00,CLR,,0.00,WeatherDisplay:10.37,2013-02-04 08:10:00,
2013-02-04 03:11:00,19.6,17.9,30.12,SSW,209,0.0,0.0,93,0.00,CLR,,0.00,WeatherDisplay:10.37,2013-02-04 08:11:00,
2013-02-04 03:12:00,19.6,17.9,30.12,SSW,209,0.0,0.0,93,0.00,CLR,,0.00,WeatherDisplay:10.37,2013-02-04 08:12:00,
2013-02-04 03:15:00,19.6,17.9,30.12,SSW,209,1.0,2.3,93,0.00,CLR,,0.00,WeatherDisplay:10.37,2013-02-04 08:15:00,
2013-02-04 03:16:00,19.7,18.0,30.12,SSW,209,1.1,2.0,93,0.00,CLR,,0.00,WeatherDisplay:10.37,2013-02-04 08:16:00,
2013-02-04 03:17:00,19.7,18.0,30.12,SSW,209,1.7,2.3,93,0.00,CLR,,0.00,WeatherDisplay:10.37,2013-02-04 08:17:00,
2013-02-04 03:20:00,19.7,18.0,30.12,SSW,209,1.5,2.3,93,0.00,CLR,,0.00,WeatherDisplay:10.37,2013-02-04 08:20:00,
2013-02-04 03:21:00,19.7,18.0,30.12,SSW,209,1.4,2.3,93,0.00,CLR,,0.00,WeatherDisplay:10.37,2013-02-04 08:21:00,
2013-02-04 03:22:00,19.7,18.0,30.12,SSW,209,1.8,3.5,93,0.00,CLR,,0.00,WeatherDisplay:10.37,2013-02-04 08:22:00,
2013-02-04 03:26:00,19.7,18.0,30.12,SSW,201,2.0,3.5,93,0.00,CLR,,0.00,WeatherDisplay:10.37,2013-02-04 08:26:00,
2013-02-04 03:27:00,19.7,18.0,30.12,SSW,201,1.8,3.5,93,0.00,CLR,,0.00,WeatherDisplay:10.37,2013-02-04 08:27:00,
2013-02-04 03:31:00,19.8,18.1,30.12,SSW,201,2.4,3.5,93,0.00,CLR,,0.00,WeatherDisplay:10.37,2013-02-04 08:31:00,
2013-02-04 03:32:00,19.8,18.1,30.12,SSW,201,1.2,3.5,93,0.00,CLR,,0.00,WeatherDisplay:10.37,2013-02-04 08:32:00,
2013-02-04 03:36:00,19.8,18.1,30.11,SSW,201,1.2,3.0,93,0.00,CLR,,0.00,WeatherDisplay:10.37,2013-02-04 08:36:00,
2013-02-04 03:37:00,19.8,18.1,30.11,SSW,201,1.4,3.5,93,0.00,CLR,,0.00,WeatherDisplay:10.37,2013-02-04 08:37:00,
2013-02-04 03:41:00,19.9,18.2,30.11,SSW,201,0.8,2.3,93,0.00,CLR,,0.00,WeatherDisplay:10.37,2013-02-04 08:41:00,
2013-02-04 03:42:00,19.9,18.2,30.11,SSW,201,0.0,0.0,93,0.00,CLR,,0.00,WeatherDisplay:10.37,2013-02-04 08:42:00,
2013-02-04 03:43:00,19.9,18.2,30.11,SSW,201,0.2,2.3,93,0.00,CLR,,0.00,WeatherDisplay:10.37,2013-02-04 08:43:00,
2013-02-04 03:46:00,19.9,18.2,30.11,SSW,201,0.0,0.0,93,0.00,CLR,,0.00,WeatherDisplay:10.37,2013-02-04 08:46:00,
2013-02-04 03:47:00,19.9,18.2,30.10,SSW,201,0.0,0.0,93,0.00,CLR,,0.00,WeatherDisplay:10.37,2013-02-04 08:47:00,
2013-02-04 03:48:00,19.9,18.2,30.10,SSW,201,0.0,0.0,93,0.00,CLR,,0.00,WeatherDisplay:10.37,2013-02-04 08:48:00,
2013-02-04 03:51:00,20.0,18.3,30.10,SSW,201,0.0,1.0,93,0.00,CLR,,0.00,WeatherDisplay:10.37,2013-02-04 08:51:00,
2013-02-04 03:52:00,20.0,18.3,30.10,SSW,201,0.0,1.0,93,0.00,CLR,,0.00,WeatherDisplay:10.37,2013-02-04 08:52:00,
2013-02-04 03:53:00,20.0,18.3,30.10,SSW,201,1.3,1.3,93,0.00,CLR,,0.00,WeatherDisplay:10.37,2013-02-04 08:53:00,
2013-02-04 03:56:00,20.0,18.3,30.10,SSW,201,0.0,0.0,93,0.00,CLR,,0.00,WeatherDisplay:10.37,2013-02-04 08:56:00,
2013-02-04 03:57:00,20.0,18.3,30.10,SSW,201,0.0,0.0,93,0.00,CLR,,0.00,WeatherDisplay:10.37,2013-02-04 08:57:00,
2013-02-04 03:58:00,20.0,18.3,30.10,SSW,201,0.0,0.0,93,0.00,CLR,,0.00,WeatherDisplay:10.37,2013-02-04 08:58:00,
2013-02-04 04:02:00,20.0,18.3,30.09,SSW,201,0.4,2.3,93,0.00,CLR,,0.00,WeatherDisplay:10.37,2013-02-04 09:02:00,
2013-02-04 04:03:00,20.0,18.3,30.09,SSW,201,1.0,2.3,93,0.00,CLR,,0.00,WeatherDisplay:10.37,2013-02-04 09:03:00,
2013-02-04 04:07:00,20.0,18.3,30.08,SSE,154,1.6,2.3,93,0.00,CLR,,0.00,WeatherDisplay:10.37,2013-02-04 09:07:00,
2013-02-04 04:08:00,20.1,18.4,30.08,SSE,148,1.2,2.3,93,0.00,CLR,,0.00,WeatherDisplay:10.37,2013-02-04 09:08:00,
2013-02-04 04:12:00,20.2,18.5,30.08,SE,128,1.0,2.3,93,0.00,CLR,,0.00,WeatherDisplay:10.37,2013-02-04 09:12:00,
2013-02-04 04:13:00,20.2,18.5,30.08,SE,128,1.9,3.5,93,0.00,CLR,,0.00,WeatherDisplay:10.37,2013-02-04 09:13:00,
2013-02-04 04:17:00,20.3,18.6,30.08,SE,130,1.5,2.3,93,0.00,CLR,,0.00,WeatherDisplay:10.37,2013-02-04 09:17:00,
2013-02-04 04:18:00,20.3,18.6,30.08,SE,129,1.6,2.3,93,0.00,CLR,,0.00,WeatherDisplay:10.37,2013-02-04 09:18:00,
2013-02-04 04:22:00,20.4,18.7,30.08,SE,125,1.1,2.3,93,0.00,CLR,,0.00,WeatherDisplay:10.37,2013-02-04 09:22:00,
2013-02-04 04:23:00,20.4,18.9,30.07,ESE,119,1.0,2.3,94,0.00,CLR,,0.00,WeatherDisplay:10.37,2013-02-04 09:23:00,
2013-02-04 04:27:00,20.6,19.1,30.07,ESE,113,1.4,2.3,94,0.00,CLR,,0.00,WeatherDisplay:10.37,2013-02-04 09:27:00,
2013-02-04 04:28:00,20.6,19.1,30.07,ESE,113,0.8,2.3,94,0.00,CLR,,0.00,WeatherDisplay:10.37,2013-02-04 09:28:00,
2013-02-04 04:29:00,20.6,19.1,30.07,ESE,113,0.6,1.1,94,0.00,CLR,,0.00,WeatherDisplay:10.37,2013-02-04 09:29:00,
2013-02-04 04:32:00,20.7,19.2,30.07,ESE,113,0.0,0.0,94,0.00,CLR,,0.00,WeatherDisplay:10.37,2013-02-04 09:32:00,
2013-02-04 04:33:00,20.7,19.2,30.07,SE,129,0.7,2.0,94,0.00,CLR,,0.00,WeatherDisplay:10.37,2013-02-04 09:33:00,
2013-02-04 04:34:00,20.8,19.3,30.07,SE,129,0.9,2.3,94,0.00,CLR,,0.00,WeatherDisplay:10.37,2013-02-04 09:34:00,
2013-02-04 04:37:00,20.8,19.3,30.07,SE,141,0.4,2.0,94,0.00,CLR,,0.00,WeatherDisplay:10.37,2013-02-04 09:37:00,
2013-02-04 04:38:00,20.9,19.4,30.07,SE,141,0.8,2.3,94,0.00,CLR,,0.00,WeatherDisplay:10.37,2013-02-04 09:38:00,
2013-02-04 04:39:00,20.9,19.4,30.07,SE,141,0.5,1.1,94,0.00,CLR,,0.00,WeatherDisplay:10.37,2013-02-04 09:39:00,
2013-02-04 04:43:00,21.0,19.5,30.07,SE,141,0.0,0.0,94,0.00,CLR,,0.00,WeatherDisplay:10.37,2013-02-04 09:43:00,
2013-02-04 04:44:00,21.0,19.5,30.07,SSE,168,1.3,2.3,94,0.00,CLR,,0.00,WeatherDisplay:10.37,2013-02-04 09:44:00,
2013-02-04 04:48:00,21.1,19.6,30.07,SSE,168,0.2,1.1,94,0.00,CLR,,0.00,WeatherDisplay:10.37,2013-02-04 09:48:00,
2013-02-04 04:49:00,21.1,19.6,30.07,SSE,168,1.9,2.3,94,0.00,CLR,,0.00,WeatherDisplay:10.37,2013-02-04 09:49:00,
2013-02-04 04:50:00,21.1,19.6,30.07,SSE,168,0.9,3.5,94,0.00,CLR,,0.00,WeatherDisplay:10.37,2013-02-04 09:50:00,
2013-02-04 04:53:00,21.2,19.7,30.07,SSE,168,0.7,2.3,94,0.00,CLR,,0.00,WeatherDisplay:10.37,2013-02-04 09:53:00,
2013-02-04 04:54:00,21.2,19.7,30.07,SSE,168,0.3,2.3,94,0.00,CLR,,0.00,WeatherDisplay:10.37,2013-02-04 09:54:00,
2013-02-04 04:55:00,21.2,19.7,30.07,SSE,168,0.0,0.0,94,0.00,CLR,,0.00,WeatherDisplay:10.37,2013-02-04 09:55:00,
2013-02-04 04:58:00,21.2,19.7,30.07,SSE,168,0.0,0.0,94,0.00,CLR,,0.00,WeatherDisplay:10.37,2013-02-04 09:58:00,
2013-02-04 04:59:00,21.2,19.7,30.07,SSE,168,0.8,1.0,94,0.00,CLR,,0.00,WeatherDisplay:10.37,2013-02-04 09:59:00,
2013-02-04 05:00:00,21.2,19.7,30.07,SSE,168,1.5,3.5,94,0.00,CLR,,0.00,WeatherDisplay:10.37,2013-02-04 10:00:00,
2013-02-04 05:03:00,21.3,19.8,30.07,SSE,153,0.0,0.0,94,0.00,CLR,,0.00,WeatherDisplay:10.37,2013-02-04 10:03:00,
2013-02-04 05:04:00,21.3,19.8,30.07,SSE,153,0.0,0.0,94,0.00,CLR,,0.00,WeatherDisplay:10.37,2013-02-04 10:04:00,
2013-02-04 05:05:00,21.3,19.8,30.07,SSE,153,1.0,2.3,94,0.00,CLR,,0.00,WeatherDisplay:10.37,2013-02-04 10:05:00,
2013-02-04 05:08:00,21.3,19.8,30.07,SE,141,0.3,1.1,94,0.00,CLR,,0.00,WeatherDisplay:10.37,2013-02-04 10:08:00,
2013-02-04 05:09:00,21.3,19.8,30.07,SE,141,0.2,1.1,94,0.00,CLR,,0.00,WeatherDisplay:10.37,2013-02-04 10:09:00,
2013-02-04 05:10:00,21.3,19.8,30.07,SE,141,0.1,1.1,94,0.00,CLR,,0.00,WeatherDisplay:10.37,2013-02-04 10:10:00,
2013-02-04 05:13:00,21.3,19.8,30.07,SSE,157,0.4,2.3,94,0.00,CLR,,0.00,WeatherDisplay:10.37,2013-02-04 10:13:00,
2013-02-04 05:14:00,21.3,19.8,30.07,SSE,150,0.6,2.3,94,0.00,CLR,,0.00,WeatherDisplay:10.37,2013-02-04 10:14:00,
2013-02-04 05:15:00,21.3,19.8,30.07,SSE,150,0.4,2.3,94,0.00,CLR,,0.00,WeatherDisplay:10.37,2013-02-04 10:15:00,
2013-02-04 05:18:00,21.3,19.8,30.06,SSE,150,0.3,2.0,94,0.00,CLR,,0.00,WeatherDisplay:10.37,2013-02-04 10:18:00,
2013-02-04 05:19:00,21.3,19.8,30.06,SSE,150,1.0,2.3,94,0.00,CLR,,0.00,WeatherDisplay:10.37,2013-02-04 10:19:00,
2013-02-04 05:20:00,21.3,19.9,30.06,SSE,154,1.0,2.0,94,0.00,CLR,,0.00,WeatherDisplay:10.37,2013-02-04 10:20:00,
2013-02-04 05:23:00,21.4,19.9,30.06,SSE,150,0.3,2.3,94,0.00,CLR,,0.00,WeatherDisplay:10.37,2013-02-04 10:23:00,
2013-02-04 05:24:00,21.4,19.9,30.06,SSE,150,0.2,1.1,94,0.00,CLR,,0.00,WeatherDisplay:10.37,2013-02-04 10:24:00,
2013-02-04 05:25:00,21.4,19.9,30.06,SSE,150,0.2,1.1,94,0.00,CLR,,0.00,WeatherDisplay:10.37,2013-02-04 10:25:00,
2013-02-04 05:28:00,21.5,20.0,30.06,SSE,150,0.0,0.0,94,0.00,CLR,,0.00,WeatherDisplay:10.37,2013-02-04 10:28:00,
2013-02-04 05:29:00,21.5,20.0,30.05,East,82,1.0,2.0,94,0.00,CLR,,0.00,WeatherDisplay:10.37,2013-02-04 10:29:00,
2013-02-04 05:30:00,21.5,20.0,30.06,ESE,123,1.0,3.0,94,0.00,CLR,,0.00,WeatherDisplay:10.37,2013-02-04 10:30:00,
2013-02-04 05:34:00,21.5,20.0,30.05,ESE,105,1.9,3.5,94,0.00,CLR,,0.00,WeatherDisplay:10.37,2013-02-04 10:34:00,
2013-02-04 05:35:00,21.5,20.0,30.05,ESE,103,1.0,3.0,94,0.00,CLR,,0.00,WeatherDisplay:10.37,2013-02-04 10:35:00,
2013-02-04 05:39:00,21.4,19.7,30.05,ESE,105,2.6,4.6,93,0.00,CLR,,0.00,WeatherDisplay:10.37,2013-02-04 10:39:00,
2013-02-04 05:40:00,21.4,19.7,30.05,East,99,2.6,4.6,93,0.00,CLR,,0.00,WeatherDisplay:10.37,2013-02-04 10:40:00,
2013-02-04 05:44:00,21.4,19.7,30.05,SE,132,2.2,3.5,93,0.00,CLR,,0.00,WeatherDisplay:10.37,2013-02-04 10:44:00,
2013-02-04 05:45:00,21.4,19.7,30.05,SE,135,1.8,3.5,93,0.00,CLR,,0.00,WeatherDisplay:10.37,2013-02-04 10:45:00,
2013-02-04 05:49:00,21.4,19.7,30.05,SSE,148,1.6,3.5,93,0.00,CLR,,0.00,WeatherDisplay:10.37,2013-02-04 10:49:00,
2013-02-04 05:50:00,21.4,19.7,30.05,ESE,103,1.7,3.5,93,0.00,CLR,,0.00,WeatherDisplay:10.37,2013-02-04 10:50:00,
2013-02-04 05:54:00,21.4,19.7,30.05,ESE,116,1.4,3.5,93,0.00,CLR,,0.00,WeatherDisplay:10.37,2013-02-04 10:54:00,
2013-02-04 05:55:00,21.4,19.7,30.05,ESE,116,1.3,3.5,93,0.00,CLR,,0.00,WeatherDisplay:10.37,2013-02-04 10:55:00,
2013-02-04 05:56:00,21.4,19.7,30.05,ESE,116,0.7,2.3,93,0.00,CLR,,0.00,WeatherDisplay:10.37,2013-02-04 10:56:00,
2013-02-04 05:59:00,21.5,19.8,30.04,ESE,118,0.1,1.1,93,0.00,CLR,,0.00,WeatherDisplay:10.37,2013-02-04 10:59:00,
2013-02-04 06:00:00,21.5,19.8,30.04,ESE,111,0.3,2.0,93,0.00,CLR,,0.00,WeatherDisplay:10.37,2013-02-04 11:00:00,
2013-02-04 06:01:00,21.4,19.7,30.04,ESE,111,0.6,2.3,93,0.00,CLR,,0.00,WeatherDisplay:10.37,2013-02-04 11:01:00,
2013-02-04 06:04:00,21.5,19.8,30.04,SE,124,0.8,2.3,93,0.00,CLR,,0.00,WeatherDisplay:10.37,2013-02-04 11:04:00,
2013-02-04 06:05:00,21.4,19.7,30.04,ESE,119,1.0,3.0,93,0.00,CLR,,0.00,WeatherDisplay:10.37,2013-02-04 11:05:00,
2013-02-04 06:06:00,21.5,19.8,30.04,SE,133,0.1,2.0,93,0.00,CLR,,0.00,WeatherDisplay:10.37,2013-02-04 11:06:00,
2013-02-04 06:09:00,21.5,19.8,30.04,SE,133,0.0,0.0,93,0.00,CLR,,0.00,WeatherDisplay:10.37,2013-02-04 11:09:00,
2013-02-04 06:10:00,21.5,19.8,30.04,SE,132,1.4,2.3,93,0.00,CLR,,0.00,WeatherDisplay:10.37,2013-02-04 11:10:00,
2013-02-04 06:11:00,21.5,19.8,30.04,SE,132,1.6,2.3,93,0.00,CLR,,0.00,WeatherDisplay:10.37,2013-02-04 11:11:00,
2013-02-04 06:14:00,21.5,19.8,30.04,SE,128,0.3,1.1,93,0.00,CLR,,0.00,WeatherDisplay:10.37,2013-02-04 11:14:00,
2013-02-04 06:15:00,21.5,19.8,30.04,SE,128,0.7,2.0,93,0.00,CLR,,0.00,WeatherDisplay:10.37,2013-02-04 11:15:00,
2013-02-04 06:16:00,21.5,19.8,30.04,SE,132,0.9,1.1,93,0.00,CLR,,0.00,WeatherDisplay:10.37,2013-02-04 11:16:00,
2013-02-04 06:19:00,21.5,19.8,30.04,SSE,152,1.1,3.5,93,0.00,CLR,,0.00,WeatherDisplay:10.37,2013-02-04 11:19:00,
2013-02-04 06:20:00,21.5,19.8,30.04,SE,127,2.3,3.5,93,0.00,CLR,,0.00,WeatherDisplay:10.37,2013-02-04 11:20:00,
2013-02-04 06:21:00,21.5,19.8,30.04,SE,127,2.1,3.5,93,0.00,CLR,,0.00,WeatherDisplay:10.37,2013-02-04 11:21:00,
2013-02-04 06:24:00,21.6,19.9,30.03,SE,131,0.1,3.5,93,0.00,CLR,,0.00,WeatherDisplay:10.37,2013-02-04 11:24:00,
2013-02-04 06:25:00,21.6,19.9,30.03,SE,131,0.2,0.0,93,0.00,CLR,,0.00,WeatherDisplay:10.37,2013-02-04 11:25:00,
2013-02-04 06:26:00,21.5,19.8,30.03,SE,131,0.3,1.0,93,0.00,CLR,,0.00,WeatherDisplay:10.37,2013-02-04 11:26:00,
2013-02-04 06:29:00,21.6,19.9,30.03,SE,133,1.4,2.3,93,0.00,CLR,,0.00,WeatherDisplay:10.37,2013-02-04 11:29:00,
2013-02-04 06:30:00,21.6,19.9,30.03,SE,136,1.0,2.3,93,0.00,CLR,,0.00,WeatherDisplay:10.37,2013-02-04 11:30:00,
2013-02-04 06:31:00,21.6,19.9,30.03,SE,136,0.9,2.3,93,0.00,CLR,,0.00,WeatherDisplay:10.37,2013-02-04 11:31:00,
2013-02-04 06:35:00,21.7,20.0,30.04,SE,136,0.7,2.3,93,0.00,CLR,,0.00,WeatherDisplay:10.37,2013-02-04 11:35:00,
2013-02-04 06:36:00,21.7,20.0,30.04,ESE,117,0.7,2.3,93,0.00,CLR,,0.00,WeatherDisplay:10.37,2013-02-04 11:36:00,
2013-02-04 06:40:00,21.7,20.0,30.03,SE,129,0.0,0.0,93,0.00,CLR,,0.00,WeatherDisplay:10.37,2013-02-04 11:40:00,
2013-02-04 06:41:00,21.7,20.0,30.03,SSE,148,0.4,2.0,93,0.00,CLR,,0.00,WeatherDisplay:10.37,2013-02-04 11:41:00,
2013-02-04 06:42:00,21.7,20.0,30.03,SSE,147,1.3,2.3,93,0.00,CLR,,0.00,WeatherDisplay:10.37,2013-02-04 11:42:00,
2013-02-04 06:45:00,21.8,20.1,30.03,SSE,166,1.6,3.5,93,0.00,CLR,,0.00,WeatherDisplay:10.37,2013-02-04 11:45:00,
2013-02-04 06:46:00,21.8,20.1,30.03,SSE,165,0.9,2.3,93,0.00,CLR,,0.00,WeatherDisplay:10.37,2013-02-04 11:46:00,
2013-02-04 06:47:00,21.8,20.1,30.03,SSE,165,1.6,2.3,93,0.00,CLR,,0.00,WeatherDisplay:10.37,2013-02-04 11:47:00,
2013-02-04 06:50:00,21.9,20.2,30.03,SSE,165,0.8,2.3,93,0.00,CLR,,0.00,WeatherDisplay:10.37,2013-02-04 11:50:00,
2013-02-04 06:51:00,21.9,20.2,30.03,SE,129,1.4,3.5,93,0.00,CLR,,0.00,WeatherDisplay:10.37,2013-02-04 11:51:00,
2013-02-04 06:52:00,21.9,20.4,30.03,SSE,159,1.5,3.5,94,0.00,CLR,,0.00,WeatherDisplay:10.37,2013-02-04 11:52:00,
2013-02-04 06:55:00,22.0,20.5,30.03,SSE,148,1.6,4.6,94,0.00,CLR,,0.00,WeatherDisplay:10.37,2013-02-04 11:55:00,
2013-02-04 06:56:00,22.0,20.5,30.03,SSE,151,1.6,2.3,94,0.00,CLR,,0.00,WeatherDisplay:10.37,2013-02-04 11:56:00,
2013-02-04 06:57:00,22.0,20.5,30.03,South,170,2.4,3.5,94,0.00,CLR,,0.00,WeatherDisplay:10.37,2013-02-04 11:57:00,
2013-02-04 07:01:00,22.1,20.6,30.03,East,88,2.4,3.5,94,0.00,CLR,,0.00,WeatherDisplay:10.37,2013-02-04 12:01:00,
2013-02-04 07:02:00,22.1,20.6,30.02,SSE,148,1.0,3.5,94,0.00,CLR,,0.00,WeatherDisplay:10.37,2013-02-04 12:02:00,
2013-02-04 07:06:00,22.1,20.6,30.02,SE,130,1.8,3.5,94,0.00,CLR,,0.00,WeatherDisplay:10.37,2013-02-04 12:06:00,
2013-02-04 07:07:00,22.2,20.7,30.02,SE,134,2.7,3.5,94,0.00,CLR,,0.00,WeatherDisplay:10.37,2013-02-04 12:07:00,
2013-02-04 07:11:00,22.2,20.7,30.02,ESE,119,2.1,3.5,94,0.00,CLR,,0.00,WeatherDisplay:10.37,2013-02-04 12:11:00,
2013-02-04 07:12:00,22.2,20.7,30.02,SE,136,2.4,3.5,94,0.00,CLR,,0.00,WeatherDisplay:10.37,2013-02-04 12:12:00,
2013-02-04 07:16:00,22.3,20.8,30.02,SE,126,0.8,3.5,94,0.00,CLR,,0.00,WeatherDisplay:10.37,2013-02-04 12:16:00,
2013-02-04 07:17:00,22.3,20.8,30.02,ESE,114,0.9,3.5,94,0.00,CLR,,0.00,WeatherDisplay:10.37,2013-02-04 12:17:00,
2013-02-04 07:21:00,22.3,20.8,30.01,ESE,108,0.3,1.1,94,0.00,CLR,,0.00,WeatherDisplay:10.37,2013-02-04 12:21:00,
2013-02-04 07:22:00,22.3,20.8,30.01,ESE,123,0.3,1.1,94,0.00,CLR,,0.00,WeatherDisplay:10.37,2013-02-04 12:22:00,
2013-02-04 07:26:00,22.3,20.8,30.01,ESE,123,0.0,0.0,94,0.00,CLR,,0.00,WeatherDisplay:10.37,2013-02-04 12:26:00,
2013-02-04 07:27:00,22.3,20.8,30.01,ESE,123,0.1,1.0,94,0.00,CLR,,0.00,WeatherDisplay:10.37,2013-02-04 12:27:00,
2013-02-04 07:28:00,22.3,20.8,30.01,ESE,123,0.1,0.0,94,0.00,CLR,,0.00,WeatherDisplay:10.37,2013-02-04 12:28:00,
2013-02-04 07:31:00,22.4,20.9,30.01,SSE,167,0.0,2.3,94,0.00,CLR,,0.00,WeatherDisplay:10.37,2013-02-04 12:31:00,
2013-02-04 07:32:00,22.3,20.8,30.01,SSE,153,0.0,0.0,94,0.00,CLR,,0.00,WeatherDisplay:10.37,2013-02-04 12:32:00,
2013-02-04 07:33:00,22.4,20.9,30.01,ESE,113,0.8,1.0,94,0.00,CLR,,0.00,WeatherDisplay:10.37,2013-02-04 12:33:00,
2013-02-04 07:36:00,22.4,20.9,30.01,East,84,0.0,1.1,94,0.00,CLR,,0.00,WeatherDisplay:10.37,2013-02-04 12:36:00,
2013-02-04 07:37:00,22.4,20.9,30.01,East,88,0.9,1.1,94,0.00,CLR,,0.00,WeatherDisplay:10.37,2013-02-04 12:37:00,
2013-02-04 07:38:00,22.4,20.9,30.01,ESE,110,0.7,2.3,94,0.00,CLR,,0.00,WeatherDisplay:10.37,2013-02-04 12:38:00,
2013-02-04 07:41:00,22.4,20.7,30.01,SE,136,0.8,2.3,93,0.00,CLR,,0.00,WeatherDisplay:10.37,2013-02-04 12:41:00,
2013-02-04 07:42:00,22.4,20.7,30.01,East,99,0.6,2.3,93,0.00,CLR,,0.00,WeatherDisplay:10.37,2013-02-04 12:42:00,
2013-02-04 07:43:00,22.5,20.8,30.01,ESE,111,0.6,2.3,93,0.00,CLR,,0.00,WeatherDisplay:10.37,2013-02-04 12:43:00,
2013-02-04 07:46:00,22.5,20.8,30.01,ESE,119,1.3,4.6,93,0.00,CLR,,0.00,WeatherDisplay:10.37,2013-02-04 12:46:00,
2013-02-04 07:47:00,22.5,20.8,30.01,ESE,116,0.5,3.5,93,0.00,CLR,,0.00,WeatherDisplay:10.37,2013-02-04 12:47:00,
2013-02-04 07:48:00,22.5,20.8,30.01,ESE,107,1.0,2.3,93,0.00,CLR,,0.00,WeatherDisplay:10.37,2013-02-04 12:48:00,
2013-02-04 07:51:00,22.6,20.9,30.01,SE,143,2.9,3.5,93,0.00,CLR,,0.00,WeatherDisplay:10.37,2013-02-04 12:51:00,
2013-02-04 07:52:00,22.6,20.9,30.01,ESE,112,1.4,4.6,93,0.00,CLR,,0.00,WeatherDisplay:10.37,2013-02-04 12:52:00,
2013-02-04 07:53:00,22.6,20.9,30.01,ENE,78,1.2,4.6,93,0.00,CLR,,0.00,WeatherDisplay:10.37,2013-02-04 12:53:00,
2013-02-04 07:56:00,22.7,21.0,30.01,ESE,105,1.0,2.3,93,0.00,CLR,,0.00,WeatherDisplay:10.37,2013-02-04 12:56:00,
2013-02-04 07:57:00,22.7,21.0,30.01,ESE,104,0.6,2.3,93,0.00,CLR,,0.00,WeatherDisplay:10.37,2013-02-04 12:57:00,
2013-02-04 07:58:00,22.7,21.0,30.01,East,101,0.6,2.3,93,0.00,CLR,,0.00,WeatherDisplay:10.37,2013-02-04 12:58:00,
2013-02-04 08:02:00,22.8,21.1,30.01,ESE,103,2.8,4.6,93,0.00,CLR,,0.00,WeatherDisplay:10.37,2013-02-04 13:02:00,
2013-02-04 08:03:00,22.8,21.1,30.01,East,96,2.6,6.0,93,0.00,CLR,,0.00,WeatherDisplay:10.37,2013-02-04 13:03:00,
2013-02-04 08:07:00,22.9,20.9,30.01,SE,135,2.2,4.6,92,0.00,CLR,,0.00,WeatherDisplay:10.37,2013-02-04 13:07:00,
2013-02-04 08:08:00,22.9,20.9,30.01,East,99,1.9,3.5,92,0.00,CLR,,0.00,WeatherDisplay:10.37,2013-02-04 13:08:00,
2013-02-04 08:12:00,23.0,21.0,30.01,SE,127,1.7,4.0,92,0.00,CLR,,0.00,WeatherDisplay:10.37,2013-02-04 13:12:00,
2013-02-04 08:13:00,23.0,21.0,30.01,SE,145,2.8,4.0,92,0.00,CLR,,0.00,WeatherDisplay:10.37,2013-02-04 13:13:00,
2013-02-04 08:17:00,23.1,21.1,30.00,ESE,106,1.4,2.3,92,0.00,CLR,,0.00,WeatherDisplay:10.37,2013-02-04 13:17:00,
2013-02-04 08:18:00,23.1,20.9,30.00,ESE,116,1.6,3.5,91,0.00,CLR,,0.00,WeatherDisplay:10.37,2013-02-04 13:18:00,
2013-02-04 08:22:00,23.1,20.9,30.00,ESE,112,2.1,3.5,91,0.00,CLR,,0.00,WeatherDisplay:10.37,2013-02-04 13:22:00,
2013-02-04 08:23:00,23.1,20.9,30.00,East,100,4.3,6.0,91,0.00,CLR,,0.00,WeatherDisplay:10.37,2013-02-04 13:23:00,
2013-02-04 08:24:00,23.1,20.9,30.00,East,101,5.1,6.9,91,0.00,CLR,,0.00,WeatherDisplay:10.37,2013-02-04 13:24:00,
2013-02-04 08:28:00,23.2,21.0,30.00,East,95,2.4,5.8,91,0.00,CLR,,0.00,WeatherDisplay:10.37,2013-02-04 13:28:00,
2013-02-04 08:29:00,23.2,21.0,30.00,East,85,3.8,5.8,91,0.00,CLR,,0.00,WeatherDisplay:10.37,2013-02-04 13:29:00,
2013-02-04 08:33:00,23.3,20.8,30.00,East,100,1.8,4.6,90,0.00,CLR,,0.00,WeatherDisplay:10.37,2013-02-04 13:33:00,
2013-02-04 08:34:00,23.3,20.8,30.00,East,82,1.7,2.3,90,0.00,CLR,,0.00,WeatherDisplay:10.37,2013-02-04 13:34:00,
2013-02-04 08:38:00,23.4,20.9,30.01,NE,41,1.8,3.5,90,0.00,CLR,,0.00,WeatherDisplay:10.37,2013-02-04 13:38:00,
2013-02-04 08:39:00,23.4,20.9,30.01,ESE,112,2.3,3.5,90,0.00,CLR,,0.00,WeatherDisplay:10.37,2013-02-04 13:39:00,
2013-02-04 08:43:00,23.4,20.9,30.01,East,93,1.9,3.5,90,0.00,CLR,,0.00,WeatherDisplay:10.37,2013-02-04 13:43:00,
2013-02-04 08:44:00,23.4,20.9,30.01,East,95,2.5,3.5,90,0.00,CLR,,0.00,WeatherDisplay:10.37,2013-02-04 13:44:00,
2013-02-04 08:48:00,23.5,21.0,30.01,NNE,32,0.1,3.5,90,0.00,CLR,,0.00,WeatherDisplay:10.37,2013-02-04 13:48:00,
2013-02-04 08:49:00,23.6,20.8,30.01,ENE,74,1.4,3.5,89,0.00,CLR,,0.00,WeatherDisplay:10.37,2013-02-04 13:49:00,
2013-02-04 08:50:00,23.5,20.8,30.01,East,83,1.0,3.0,89,0.00,CLR,,0.00,WeatherDisplay:10.37,2013-02-04 13:50:00,
2013-02-04 08:53:00,23.6,20.8,30.00,ENE,72,2.5,4.6,89,0.00,CLR,,0.00,WeatherDisplay:10.37,2013-02-04 13:53:00,
2013-02-04 08:54:00,23.7,20.9,30.00,East,98,2.5,4.6,89,0.00,CLR,,0.00,WeatherDisplay:10.37,2013-02-04 13:54:00,
2013-02-04 08:55:00,23.7,20.9,30.00,ENE,57,1.5,3.5,89,0.00,CLR,,0.00,WeatherDisplay:10.37,2013-02-04 13:55:00,
2013-02-04 08:59:00,23.8,21.0,30.01,ENE,65,2.5,4.6,89,0.00,CLR,,0.00,WeatherDisplay:10.37,2013-02-04 13:59:00,
2013-02-04 09:00:00,23.8,21.0,30.01,ENE,77,2.5,4.6,89,0.00,CLR,,0.00,WeatherDisplay:10.37,2013-02-04 14:00:00,
2013-02-04 09:04:00,23.9,21.1,30.01,East,80,2.3,3.0,89,0.00,CLR,,0.00,WeatherDisplay:10.37,2013-02-04 14:04:00,
2013-02-04 09:05:00,23.9,21.1,30.00,ENE,62,3.9,5.8,89,0.00,CLR,,0.00,WeatherDisplay:10.37,2013-02-04 14:05:00,
2013-02-04 09:09:00,23.9,21.1,30.01,NE,55,2.7,5.8,89,0.00,CLR,,0.00,WeatherDisplay:10.37,2013-02-04 14:09:00,
2013-02-04 09:10:00,23.9,21.1,30.01,ENE,70,1.6,4.6,89,0.00,CLR,,0.00,WeatherDisplay:10.37,2013-02-04 14:10:00,
2013-02-04 09:14:00,24.0,21.2,30.00,ESE,104,2.3,3.5,89,0.00,CLR,,0.00,WeatherDisplay:10.37,2013-02-04 14:14:00,
2013-02-04 09:15:00,24.0,21.2,30.00,ENE,64,3.3,5.8,89,0.00,CLR,,0.00,WeatherDisplay:10.37,2013-02-04 14:15:00,
2013-02-04 09:16:00,24.0,21.2,30.00,East,84,3.4,4.6,89,0.00,CLR,,0.00,WeatherDisplay:10.37,2013-02-04 14:16:00,
2013-02-04 09:19:00,24.1,21.3,30.01,East,82,3.4,4.6,89,0.00,CLR,,0.00,WeatherDisplay:10.37,2013-02-04 14:19:00,
2013-02-04 09:20:00,24.1,21.3,30.00,East,84,4.2,6.9,89,0.00,CLR,,0.00,WeatherDisplay:10.37,2013-02-04 14:20:00,
2013-02-04 09:21:00,24.0,21.2,30.00,ENE,73,2.5,6.9,89,0.00,CLR,,0.00,WeatherDisplay:10.37,2013-02-04 14:21:00,
2013-02-04 09:24:00,24.1,21.3,30.00,NE,38,2.2,4.6,89,0.00,CLR,,0.00,WeatherDisplay:10.37,2013-02-04 14:24:00,
2013-02-04 09:25:00,24.2,21.4,30.00,East,98,3.2,5.0,89,0.00,CLR,,0.00,WeatherDisplay:10.37,2013-02-04 14:25:00,
2013-02-04 09:26:00,24.2,21.4,30.00,NE,56,3.6,6.9,89,0.00,CLR,,0.00,WeatherDisplay:10.37,2013-02-04 14:26:00,
2013-02-04 09:29:00,24.2,21.4,30.00,ENE,77,3.4,3.5,89,0.00,CLR,,0.00,WeatherDisplay:10.37,2013-02-04 14:29:00,
2013-02-04 09:30:00,24.2,21.4,30.00,ENE,71,3.2,6.9,89,0.00,CLR,,0.00,WeatherDisplay:10.37,2013-02-04 14:30:00,
2013-02-04 09:31:00,24.2,21.4,30.00,ENE,72,4.2,6.9,89,0.00,CLR,,0.00,WeatherDisplay:10.37,2013-02-04 14:31:00,
2013-02-04 09:34:00,24.2,21.4,30.00,ESE,106,2.3,4.6,89,0.00,CLR,,0.00,WeatherDisplay:10.37,2013-02-04 14:34:00,
2013-02-04 09:35:00,24.2,21.4,30.00,East,90,3.1,3.5,89,0.00,CLR,,0.00,WeatherDisplay:10.37,2013-02-04 14:35:00,
2013-02-04 09:36:00,24.2,21.4,30.00,East,95,3.1,3.5,89,0.00,CLR,,0.00,WeatherDisplay:10.37,2013-02-04 14:36:00,
2013-02-04 09:40:00,24.2,21.4,29.99,ENE,67,6.4,9.2,89,0.00,CLR,,0.00,WeatherDisplay:10.37,2013-02-04 14:40:00,
2013-02-04 09:41:00,24.1,21.3,29.99,East,85,2.6,7.0,89,0.00,CLR,,0.00,WeatherDisplay:10.37,2013-02-04 14:41:00,
2013-02-04 09:45:00,24.1,21.3,29.99,ENE,67,3.3,6.9,89,0.00,CLR,,0.00,WeatherDisplay:10.37,2013-02-04 14:45:00,
2013-02-04 09:46:00,24.1,21.3,29.99,East,98,3.5,6.9,89,0.00,CLR,,0.00,WeatherDisplay:10.37,2013-02-04 14:46:00,
2013-02-04 09:50:00,24.2,21.4,29.99,ENE,76,3.5,4.6,89,0.00,CLR,,0.00,WeatherDisplay:10.37,2013-02-04 14:50:00,
2013-02-04 09:51:00,24.2,21.4,29.99,East,101,3.4,5.0,89,0.00,CLR,,0.00,WeatherDisplay:10.37,2013-02-04 14:51:00,
2013-02-04 09:55:00,24.2,21.4,29.98,East,91,3.4,8.1,89,0.00,CLR,,0.00,WeatherDisplay:10.37,2013-02-04 14:55:00,
2013-02-04 09:56:00,24.2,21.4,29.98,ENE,68,3.3,5.8,89,0.00,CLR,,0.00,WeatherDisplay:10.37,2013-02-04 14:56:00,
2013-02-04 09:57:00,24.2,21.4,29.98,ESE,109,4.1,5.8,89,0.00,CLR,,0.00,WeatherDisplay:10.37,2013-02-04 14:57:00,
2013-02-04 10:00:00,24.3,21.3,29.99,ENE,62,3.0,4.6,88,0.00,CLR,,0.00,WeatherDisplay:10.37,2013-02-04 15:00:00,
2013-02-04 12:04:00,25.7,22.9,29.95,East,84,8.0,10.0,89,0.00,CLR,,0.00,WeatherDisplay:10.37,2013-02-04 17:04:00,
2013-02-04 12:05:00,25.7,22.9,29.95,East,98,6.7,8.1,89,0.00,CLR,,0.00,WeatherDisplay:10.37,2013-02-04 17:05:00,
2013-02-04 12:09:00,25.6,22.8,29.95,ESE,116,2.1,9.2,89,0.00,CLR,,0.00,WeatherDisplay:10.37,2013-02-04 17:09:00,
2013-02-04 12:10:00,25.6,22.8,29.95,East,88,3.0,9.0,89,0.00,CLR,,0.00,WeatherDisplay:10.37,2013-02-04 17:10:00,
2013-02-04 12:15:00,25.7,22.9,29.95,NNE,23,0.1,1.1,89,0.00,CLR,,0.00,WeatherDisplay:10.37,2013-02-04 17:15:00,
2013-02-04 12:20:00,25.7,22.9,29.95,SE,146,2.3,3.5,89,0.00,CLR,,0.00,WeatherDisplay:10.37,2013-02-04 17:20:00,
2013-02-04 12:25:00,25.7,22.9,29.95,ESE,110,2.7,3.5,89,0.00,CLR,,0.00,WeatherDisplay:10.37,2013-02-04 17:25:00,
2013-02-04 12:26:00,25.7,22.9,29.95,ENE,74,2.6,7.0,89,0.00,CLR,,0.00,WeatherDisplay:10.37,2013-02-04 17:26:00,
2013-02-04 12:30:00,25.8,23.0,29.94,ENE,71,3.0,3.5,89,0.00,CLR,,0.00,WeatherDisplay:10.37,2013-02-04 17:30:00,
2013-02-04 12:31:00,25.8,23.0,29.94,ENE,62,1.7,5.8,89,0.00,CLR,,0.00,WeatherDisplay:10.37,2013-02-04 17:31:00,
2013-02-04 12:35:00,25.9,22.8,29.94,East,81,1.4,3.5,88,0.00,CLR,,0.00,WeatherDisplay:10.37,2013-02-04 17:35:00,
2013-02-04 12:36:00,25.9,22.8,29.94,SE,142,1.9,4.6,88,0.00,CLR,,0.00,WeatherDisplay:10.37,2013-02-04 17:36:00,
2013-02-04 12:40:00,26.0,22.9,29.93,SE,131,3.8,6.0,88,0.00,CLR,,0.00,WeatherDisplay:10.37,2013-02-04 17:40:00,
2013-02-04 12:41:00,26.0,22.9,29.93,SE,134,4.3,6.9,88,0.00,CLR,,0.00,WeatherDisplay:10.37,2013-02-04 17:41:00,
2013-02-04 12:45:00,26.0,22.9,29.93,ESE,103,3.4,8.1,88,0.00,CLR,,0.00,WeatherDisplay:10.37,2013-02-04 17:45:00,
2013-02-04 12:46:00,26.1,23.0,29.93,ENE,78,5.4,7.0,88,0.00,CLR,,0.00,WeatherDisplay:10.37,2013-02-04 17:46:00,
2013-02-04 12:50:00,26.1,23.0,29.93,East,94,4.1,6.9,88,0.00,CLR,,0.00,WeatherDisplay:10.37,2013-02-04 17:50:00,
2013-02-04 12:51:00,26.1,23.0,29.93,SE,125,2.8,5.8,88,0.00,CLR,,0.00,WeatherDisplay:10.37,2013-02-04 17:51:00,
2013-02-04 12:55:00,26.3,23.2,29.92,East,82,2.4,4.6,88,0.00,CLR,,0.00,WeatherDisplay:10.37,2013-02-04 17:55:00,
2013-02-04 12:56:00,26.3,23.2,29.92,ENE,74,1.5,3.5,88,0.00,CLR,,0.00,WeatherDisplay:10.37,2013-02-04 17:56:00,
2013-02-04 13:00:00,26.5,23.4,29.92,SE,141,2.7,4.6,88,0.00,CLR,,0.00,WeatherDisplay:10.37,2013-02-04 18:00:00,
2013-02-04 13:01:00,26.5,23.4,29.92,NE,34,1.5,3.5,88,0.00,CLR,,0.00,WeatherDisplay:10.37,2013-02-04 18:01:00,
2013-02-04 13:02:00,26.5,23.4,29.92,ENE,77,2.6,4.6,88,0.00,CLR,,0.00,WeatherDisplay:10.37,2013-02-04 18:02:00,
2013-02-04 13:05:00,26.5,23.2,29.92,East,80,1.6,6.9,87,0.00,CLR,,0.00,WeatherDisplay:10.37,2013-02-04 18:05:00,
2013-02-04 13:06:00,26.6,23.3,29.92,ESE,117,2.2,5.0,87,0.00,CLR,,0.00,WeatherDisplay:10.37,2013-02-04 18:06:00,
2013-02-04 13:07:00,26.6,23.3,29.92,East,96,4.1,5.8,87,0.00,CLR,,0.00,WeatherDisplay:10.37,2013-02-04 18:07:00,
2013-02-04 13:10:00,26.7,23.4,29.92,East,96,1.7,3.5,87,0.00,CLR,,0.00,WeatherDisplay:10.37,2013-02-04 18:10:00,
2013-02-04 13:11:00,26.7,23.6,29.92,East,88,2.4,3.5,88,0.00,CLR,,0.00,WeatherDisplay:10.37,2013-02-04 18:11:00,
2013-02-04 13:12:00,26.8,23.4,29.92,ESE,118,1.7,3.5,87,0.00,CLR,,0.00,WeatherDisplay:10.37,2013-02-04 18:12:00,
2013-02-04 13:16:00,26.9,23.5,29.92,ENE,78,2.7,3.5,87,0.00,CLR,,0.00,WeatherDisplay:10.37,2013-02-04 18:16:00,
2013-02-04 13:17:00,27.0,23.6,29.91,ESE,112,1.8,6.9,87,0.00,CLR,,0.00,WeatherDisplay:10.37,2013-02-04 18:17:00,
2013-02-04 13:21:00,27.1,23.7,29.91,ESE,105,3.5,4.6,87,0.00,CLR,,0.00,WeatherDisplay:10.37,2013-02-04 18:21:00,
2013-02-04 13:22:00,27.2,23.8,29.91,East,101,2.6,3.5,87,0.00,CLR,,0.00,WeatherDisplay:10.37,2013-02-04 18:22:00,
2013-02-04 13:26:00,27.2,23.6,29.91,ESE,111,3.7,5.0,86,0.00,CLR,,0.00,WeatherDisplay:10.37,2013-02-04 18:26:00,
2013-02-04 13:28:00,27.3,23.9,29.91,East,79,2.4,3.5,87,0.00,CLR,,0.00,WeatherDisplay:10.37,2013-02-04 18:28:00,
2013-02-04 13:31:00,27.4,24.0,29.92,East,88,1.6,2.3,87,0.00,CLR,,0.00,WeatherDisplay:10.37,2013-02-04 18:31:00,
2013-02-04 13:34:00,27.4,23.8,29.92,ESE,108,0.7,4.6,86,0.00,CLR,,0.00,WeatherDisplay:10.37,2013-02-04 18:34:00,
2013-02-04 13:36:00,27.5,24.1,29.92,South,184,0.0,1.1,87,0.00,CLR,,0.00,WeatherDisplay:10.37,2013-02-04 18:36:00,
2013-02-04 13:37:00,27.5,24.1,29.92,South,184,0.0,0.0,87,0.00,CLR,,0.00,WeatherDisplay:10.37,2013-02-04 18:37:00,
2013-02-04 13:39:00,27.7,24.3,29.92,East,97,1.7,2.3,87,0.00,CLR,,0.00,WeatherDisplay:10.37,2013-02-04 18:39:00,
2013-02-04 13:41:00,27.7,24.1,29.91,ESE,113,2.5,5.0,86,0.00,CLR,,0.00,WeatherDisplay:10.37,2013-02-04 18:41:00,
2013-02-04 13:42:00,27.7,24.3,29.91,ESE,108,4.0,6.9,87,0.00,CLR,,0.00,WeatherDisplay:10.37,2013-02-04 18:42:00,
2013-02-04 13:44:00,27.6,24.2,29.91,East,81,2.5,4.6,87,0.00,CLR,,0.00,WeatherDisplay:10.37,2013-02-04 18:44:00,
2013-02-04 13:46:00,27.6,24.0,29.91,ESE,119,1.6,6.9,86,0.00,CLR,,0.00,WeatherDisplay:10.37,2013-02-04 18:46:00,
2013-02-04 13:47:00,27.6,24.2,29.91,East,92,1.4,3.5,87,0.00,CLR,,0.00,WeatherDisplay:10.37,2013-02-04 18:47:00,
2013-02-04 13:49:00,27.7,24.3,29.91,East,82,2.7,6.0,87,0.00,CLR,,0.00,WeatherDisplay:10.37,2013-02-04 18:49:00,
2013-02-04 13:51:00,27.7,24.3,29.91,East,88,2.5,3.5,87,0.00,CLR,,0.00,WeatherDisplay:10.37,2013-02-04 18:51:00,
2013-02-04 13:52:00,27.7,24.3,29.91,ESE,115,2.3,5.8,87,0.00,CLR,,0.00,WeatherDisplay:10.37,2013-02-04 18:52:00,
2013-02-04 13:54:00,27.7,24.1,29.91,ESE,112,2.1,5.8,86,0.00,CLR,,0.00,WeatherDisplay:10.37,2013-02-04 18:54:00,
2013-02-04 13:56:00,27.7,24.1,29.91,SE,132,3.5,8.1,86,0.00,CLR,,0.00,WeatherDisplay:10.37,2013-02-04 18:56:00,
2013-02-04 13:57:00,27.7,24.1,29.91,ESE,103,3.5,4.6,86,0.00,CLR,,0.00,WeatherDisplay:10.37,2013-02-04 18:57:00,
2013-02-04 13:59:00,27.7,24.3,29.91,ESE,107,3.3,3.5,87,0.01,RA,,0.01,WeatherDisplay:10.37,2013-02-04 18:59:00,
2013-02-04 14:01:00,27.7,24.3,29.91,ESE,109,4.3,6.9,87,0.01,RA,,0.01,WeatherDisplay:10.37,2013-02-04 19:01:00,
2013-02-04 14:02:00,27.7,24.3,29.91,East,99,4.0,4.6,87,0.01,RA,,0.01,WeatherDisplay:10.37,2013-02-04 19:02:00,
2013-02-04 14:04:00,27.7,24.3,29.91,East,88,0.8,4.6,87,0.01,RA,,0.01,WeatherDisplay:10.37,2013-02-04 19:04:00,
2013-02-04 14:06:00,27.7,24.3,29.91,NE,44,2.3,3.5,87,0.01,RA,,0.01,WeatherDisplay:10.37,2013-02-04 19:06:00,
2013-02-04 14:07:00,27.7,24.3,29.91,NE,52,3.5,4.6,87,0.01,RA,,0.01,WeatherDisplay:10.37,2013-02-04 19:07:00,
2013-02-04 14:10:00,27.7,24.3,29.91,NE,47,3.3,4.6,87,0.01,,,0.01,WeatherDisplay:10.37,2013-02-04 19:10:00,
2013-02-04 14:11:00,27.7,24.3,29.91,NE,49,3.4,3.5,87,0.01,CLR,,0.01,WeatherDisplay:10.37,2013-02-04 19:11:00,
2013-02-04 14:12:00,27.6,24.2,29.91,East,83,4.4,6.0,87,0.01,CLR,,0.01,WeatherDisplay:10.37,2013-02-04 19:12:00,
2013-02-04 14:15:00,27.6,24.2,29.92,NE,51,2.2,6.9,87,0.01,CLR,,0.01,WeatherDisplay:10.37,2013-02-04 19:15:00,
2013-02-04 14:17:00,27.6,24.2,29.92,NE,49,3.1,5.8,87,0.01,CLR,,0.01,WeatherDisplay:10.37,2013-02-04 19:17:00,
2013-02-04 14:18:00,27.6,24.2,29.92,NE,49,2.5,4.6,87,0.01,CLR,,0.01,WeatherDisplay:10.37,2013-02-04 19:18:00,
2013-02-04 14:20:00,27.5,24.1,29.92,NE,50,2.0,3.5,87,0.01,CLR,,0.01,WeatherDisplay:10.37,2013-02-04 19:20:00,
2013-02-04 14:22:00,27.5,24.1,29.92,NE,40,1.8,3.5,87,0.01,CLR,,0.01,WeatherDisplay:10.37,2013-02-04 19:22:00,
2013-02-04 14:23:00,27.5,24.1,29.92,ENE,59,3.2,4.6,87,0.01,CLR,,0.01,WeatherDisplay:10.37,2013-02-04 19:23:00,
2013-02-04 14:25:00,27.5,24.4,29.92,East,80,3.4,5.8,88,0.01,CLR,,0.01,WeatherDisplay:10.37,2013-02-04 19:25:00,
2013-02-04 14:27:00,27.6,24.5,29.91,ENE,69,3.1,4.6,88,0.01,CLR,,0.01,WeatherDisplay:10.37,2013-02-04 19:27:00,
2013-02-04 14:28:00,27.6,24.5,29.92,East,101,2.6,3.5,88,0.01,CLR,,0.01,WeatherDisplay:10.37,2013-02-04 19:28:00,
2013-02-04 14:30:00,27.7,24.6,29.92,ENE,77,1.8,4.6,88,0.01,CLR,,0.01,WeatherDisplay:10.37,2013-02-04 19:30:00,
2013-02-04 14:32:00,27.7,24.6,29.92,NE,50,1.3,2.3,88,0.01,CLR,,0.01,WeatherDisplay:10.37,2013-02-04 19:32:00,
2013-02-04 14:33:00,27.8,24.4,29.91,ENE,65,1.2,4.0,87,0.01,CLR,,0.01,WeatherDisplay:10.37,2013-02-04 19:33:00,
2013-02-04 14:35:00,27.7,24.3,29.92,ENE,63,3.2,4.6,87,0.01,CLR,,0.01,WeatherDisplay:10.37,2013-02-04 19:35:00,
2013-02-04 14:37:00,27.6,24.2,29.92,NE,53,2.4,3.5,87,0.01,CLR,,0.01,WeatherDisplay:10.37,2013-02-04 19:37:00,
2013-02-04 14:38:00,27.6,24.2,29.92,ENE,57,3.0,3.5,87,0.01,CLR,,0.01,WeatherDisplay:10.37,2013-02-04 19:38:00,
2013-02-04 14:40:00,27.6,24.2,29.91,ENE,62,2.8,3.5,87,0.01,CLR,,0.01,WeatherDisplay:10.37,2013-02-04 19:40:00,
2013-02-04 14:42:00,27.7,24.3,29.91,NE,53,3.1,5.0,87,0.01,CLR,,0.01,WeatherDisplay:10.37,2013-02-04 19:42:00,
2013-02-04 14:43:00,27.6,24.2,29.91,ENE,71,3.4,5.8,87,0.01,CLR,,0.01,WeatherDisplay:10.37,2013-02-04 19:43:00,
2013-02-04 14:46:00,27.8,24.4,29.91,East,80,2.0,3.5,87,0.01,CLR,,0.01,WeatherDisplay:10.37,2013-02-04 19:46:00,
2013-02-04 14:47:00,27.8,24.4,29.91,ESE,103,3.2,4.6,87,0.01,CLR,,0.01,WeatherDisplay:10.37,2013-02-04 19:47:00,
2013-02-04 14:48:00,27.8,24.4,29.91,East,79,2.0,3.5,87,0.01,CLR,,0.01,WeatherDisplay:10.37,2013-02-04 19:48:00,
2013-02-04 14:51:00,27.9,24.5,29.91,ENE,71,1.3,3.5,87,0.01,CLR,,0.01,WeatherDisplay:10.37,2013-02-04 19:51:00,
2013-02-04 14:52:00,28.0,24.6,29.91,NE,45,1.1,3.5,87,0.01,CLR,,0.01,WeatherDisplay:10.37,2013-02-04 19:52:00,
2013-02-04 14:53:00,28.0,24.6,29.91,ENE,75,1.1,2.3,87,0.01,CLR,,0.01,WeatherDisplay:10.37,2013-02-04 19:53:00,
2013-02-04 14:56:00,28.1,24.7,29.91,ESE,106,1.9,4.6,87,0.01,CLR,,0.01,WeatherDisplay:10.37,2013-02-04 19:56:00,
2013-02-04 14:57:00,28.1,24.7,29.91,East,96,3.3,6.9,87,0.01,CLR,,0.01,WeatherDisplay:10.37,2013-02-04 19:57:00,
2013-02-04 14:58:00,28.1,24.7,29.91,East,93,2.8,6.9,87,0.01,CLR,,0.01,WeatherDisplay:10.37,2013-02-04 19:58:00,
2013-02-04 15:02:00,28.1,24.5,29.91,ENE,65,2.2,3.5,86,0.00,CLR,,0.01,WeatherDisplay:10.37,2013-02-04 20:02:00,
2013-02-04 15:03:00,28.1,24.7,29.91,East,95,1.9,3.5,87,0.00,CLR,,0.01,WeatherDisplay:10.37,2013-02-04 20:03:00,
2013-02-04 15:07:00,28.2,24.8,29.91,NE,39,2.2,4.0,87,0.00,CLR,,0.01,WeatherDisplay:10.37,2013-02-04 20:07:00,
2013-02-04 15:08:00,28.2,24.8,29.91,ENE,58,2.2,3.5,87,0.00,CLR,,0.01,WeatherDisplay:10.37,2013-02-04 20:08:00,
2013-02-04 15:09:00,28.2,24.8,29.91,ENE,58,2.6,3.5,87,0.00,CLR,,0.01,WeatherDisplay:10.37,2013-02-04 20:09:00,
2013-02-04 15:12:00,28.2,24.6,29.91,ENE,64,2.1,3.5,86,0.00,CLR,,0.01,WeatherDisplay:10.37,2013-02-04 20:12:00,
2013-02-04 15:13:00,28.2,24.6,29.91,NE,53,1.6,3.5,86,0.00,CLR,,0.01,WeatherDisplay:10.37,2013-02-04 20:13:00,
2013-02-04 15:14:00,28.2,24.6,29.91,ENE,57,2.5,5.0,86,0.00,CLR,,0.01,WeatherDisplay:10.37,2013-02-04 20:14:00,
2013-02-04 15:17:00,28.1,24.5,29.90,NE,49,3.9,5.0,86,0.00,CLR,,0.01,WeatherDisplay:10.37,2013-02-04 20:17:00,
2013-02-04 15:18:00,28.1,24.5,29.90,NE,55,2.8,4.6,86,0.00,CLR,,0.01,WeatherDisplay:10.37,2013-02-04 20:18:00,
2013-02-04 15:19:00,28.1,24.5,29.90,ENE,65,2.3,3.5,86,0.00,CLR,,0.01,WeatherDisplay:10.37,2013-02-04 20:19:00,
2013-02-04 15:22:00,28.2,24.8,29.90,NE,34,1.3,2.3,87,0.00,CLR,,0.01,WeatherDisplay:10.37,2013-02-04 20:22:00,
2013-02-04 15:23:00,28.3,24.9,29.90,NE,36,1.7,2.3,87,0.00,CLR,,0.01,WeatherDisplay:10.37,2013-02-04 20:23:00,
2013-02-04 15:24:00,28.3,24.9,29.90,NNE,28,2.0,3.5,87,0.00,CLR,,0.01,WeatherDisplay:10.37,2013-02-04 20:24:00,
2013-02-04 15:27:00,28.4,25.0,29.91,NNE,31,1.8,3.5,87,0.00,CLR,,0.01,WeatherDisplay:10.37,2013-02-04 20:27:00,
2013-02-04 15:28:00,28.4,25.0,29.91,ENE,77,1.5,4.0,87,0.00,CLR,,0.01,WeatherDisplay:10.37,2013-02-04 20:28:00,
2013-02-04 15:29:00,28.4,25.0,29.91,ENE,63,2.0,3.5,87,0.00,CLR,,0.01,WeatherDisplay:10.37,2013-02-04 20:29:00,
2013-02-04 15:32:00,28.4,24.7,29.91,NNE,32,1.7,2.3,86,0.00,CLR,,0.01,WeatherDisplay:10.37,2013-02-04 20:32:00,
2013-02-04 15:33:00,28.4,25.0,29.91,North,9,1.4,3.0,87,0.00,CLR,,0.01,WeatherDisplay:10.37,2013-02-04 20:33:00,
2013-02-04 15:34:00,28.4,25.0,29.91,NNE,13,1.4,3.5,87,0.00,CLR,,0.01,WeatherDisplay:10.37,2013-02-04 20:34:00,
2013-02-04 15:38:00,28.4,25.0,29.91,NE,34,2.7,3.5,87,0.00,CLR,,0.01,WeatherDisplay:10.37,2013-02-04 20:38:00,
2013-02-04 15:39:00,28.3,24.6,29.91,NNE,24,2.5,4.0,86,0.00,CLR,,0.01,WeatherDisplay:10.37,2013-02-04 20:39:00,
2013-02-04 15:40:00,28.3,24.9,29.91,NNE,31,2.9,3.5,87,0.00,CLR,,0.01,WeatherDisplay:10.37,2013-02-04 20:40:00,
2013-02-04 15:43:00,28.3,24.6,29.91,NNE,28,2.1,3.5,86,0.00,CLR,,0.01,WeatherDisplay:10.37,2013-02-04 20:43:00,
2013-02-04 15:44:00,28.3,24.9,29.91,NNE,32,2.2,3.5,87,0.00,CLR,,0.01,WeatherDisplay:10.37,2013-02-04 20:44:00,
2013-02-04 15:45:00,28.3,24.9,29.91,North,5,2.3,3.5,87,0.00,CLR,,0.01,WeatherDisplay:10.37,2013-02-04 20:45:00,
2013-02-04 15:48:00,28.3,24.9,29.91,NE,46,3.6,4.6,87,0.00,CLR,,0.01,WeatherDisplay:10.37,2013-02-04 20:48:00,
2013-02-04 15:49:00,28.3,24.6,29.91,NE,35,2.3,4.6,86,0.00,CLR,,0.01,WeatherDisplay:10.37,2013-02-04 20:49:00,
2013-02-04 15:50:00,28.3,24.6,29.91,NNE,30,2.2,3.5,86,0.00,CLR,,0.01,WeatherDisplay:10.37,2013-02-04 20:50:00,
2013-02-04 15:53:00,28.2,24.8,29.91,ENE,57,2.8,3.5,87,0.00,CLR,,0.01,WeatherDisplay:10.37,2013-02-04 20:53:00,
2013-02-04 15:54:00,28.1,24.7,29.91,ENE,58,2.0,3.5,87,0.00,CLR,,0.01,WeatherDisplay:10.37,2013-02-04 20:54:00,
2013-02-04 15:55:00,28.1,24.7,29.92,ENE,57,2.4,4.0,87,0.01,RA,,0.02,WeatherDisplay:10.37,2013-02-04 20:55:00,
2013-02-04 15:58:00,28.2,24.6,29.92,NE,56,2.2,3.5,86,0.01,RA,,0.02,WeatherDisplay:10.37,2013-02-04 20:58:00,
2013-02-04 15:59:00,28.2,24.6,29.92,NE,34,1.6,3.5,86,0.01,RA,,0.02,WeatherDisplay:10.37,2013-02-04 20:59:00,
2013-02-04 16:00:00,28.2,24.8,29.92,NNE,21,1.6,3.5,87,0.01,RA,,0.02,WeatherDisplay:10.37,2013-02-04 21:00:00,
2013-02-04 16:03:00,28.3,24.9,29.92,NNE,32,1.9,3.5,87,0.01,RA,,0.02,WeatherDisplay:10.37,2013-02-04 21:03:00,
2013-02-04 16:04:00,28.3,24.9,29.92,NNE,14,2.0,3.5,87,0.01,RA,,0.02,WeatherDisplay:10.37,2013-02-04 21:04:00,
2013-02-04 16:05:00,28.4,25.0,29.92,NNE,23,1.6,3.5,87,0.01,,,0.02,WeatherDisplay:10.37,2013-02-04 21:05:00,
2013-02-04 16:08:00,28.5,25.1,29.92,North,350,1.7,3.5,87,0.01,CLR,,0.02,WeatherDisplay:10.37,2013-02-04 21:08:00,
2013-02-04 16:09:00,28.5,24.8,29.92,North,5,2.6,3.5,86,0.01,CLR,,0.02,WeatherDisplay:10.37,2013-02-04 21:09:00,
2013-02-04 16:10:00,28.5,25.1,29.92,NNE,13,1.9,3.5,87,0.01,CLR,,0.02,WeatherDisplay:10.37,2013-02-04 21:10:00,
2013-02-04 16:13:00,28.5,24.8,29.92,North,11,1.3,3.5,86,0.01,CLR,,0.02,WeatherDisplay:10.37,2013-02-04 21:13:00,
2013-02-04 16:14:00,28.5,24.8,29.92,NNE,19,1.0,3.0,86,0.01,CLR,,0.02,WeatherDisplay:10.37,2013-02-04 21:14:00,
2013-02-04 16:15:00,28.5,24.8,29.92,NNE,26,1.3,3.5,86,0.01,CLR,,0.02,WeatherDisplay:10.37,2013-02-04 21:15:00,
2013-02-04 16:18:00,28.6,24.9,29.92,NNE,17,0.5,3.5,86,0.01,CLR,,0.02,WeatherDisplay:10.37,2013-02-04 21:18:00,
2013-02-04 16:19:00,28.7,25.0,29.92,North,11,1.4,3.0,86,0.01,CLR,,0.02,WeatherDisplay:10.37,2013-02-04 21:19:00,
2013-02-04 16:20:00,28.7,25.0,29.92,North,11,1.9,3.5,86,0.01,CLR,,0.02,WeatherDisplay:10.37,2013-02-04 21:20:00,
2013-02-04 16:23:00,28.7,24.8,29.92,North,11,1.3,2.3,85,0.01,CLR,,0.02,WeatherDisplay:10.37,2013-02-04 21:23:00,
2013-02-04 16:24:00,28.7,25.0,29.92,North,9,0.9,3.5,86,0.01,CLR,,0.02,WeatherDisplay:10.37,2013-02-04 21:24:00,
2013-02-04 16:25:00,28.6,24.9,29.92,North,9,0.7,2.3,86,0.01,CLR,,0.02,WeatherDisplay:10.37,2013-02-04 21:25:00,
2013-02-04 16:29:00,28.6,24.9,29.92,NNE,19,1.7,3.5,86,0.01,CLR,,0.02,WeatherDisplay:10.37,2013-02-04 21:29:00,
2013-02-04 16:30:00,28.6,24.9,29.92,NNE,13,1.6,2.3,86,0.01,CLR,,0.02,WeatherDisplay:10.37,2013-02-04 21:30:00,
2013-02-04 16:34:00,28.5,24.8,29.92,NNE,15,1.4,3.5,86,0.01,CLR,,0.02,WeatherDisplay:10.37,2013-02-04 21:34:00,
2013-02-04 16:35:00,28.5,24.8,29.92,NNE,13,1.7,3.5,86,0.01,CLR,,0.02,WeatherDisplay:10.37,2013-02-04 21:35:00,
2013-02-04 16:39:00,28.4,24.7,29.92,North,5,2.2,3.5,86,0.01,CLR,,0.02,WeatherDisplay:10.37,2013-02-04 21:39:00,
2013-02-04 16:40:00,28.3,24.9,29.92,NNE,21,2.4,3.5,87,0.01,CLR,,0.02,WeatherDisplay:10.37,2013-02-04 21:40:00,
2013-02-04 16:41:00,28.3,24.9,29.92,NNE,21,2.3,3.5,87,0.01,CLR,,0.02,WeatherDisplay:10.37,2013-02-04 21:41:00,
2013-02-04 16:44:00,28.2,24.8,29.92,NNE,22,1.9,3.5,87,0.01,CLR,,0.02,WeatherDisplay:10.37,2013-02-04 21:44:00,
2013-02-04 16:45:00,28.1,24.7,29.92,NNE,29,2.1,3.5,87,0.01,CLR,,0.02,WeatherDisplay:10.37,2013-02-04 21:45:00,
2013-02-04 16:46:00,28.1,24.7,29.92,NNE,29,2.1,3.5,87,0.01,CLR,,0.02,WeatherDisplay:10.37,2013-02-04 21:46:00,
2013-02-04 16:49:00,28.0,24.6,29.92,NNE,22,1.7,3.5,87,0.01,CLR,,0.02,WeatherDisplay:10.37,2013-02-04 21:49:00,
2013-02-04 16:50:00,28.0,24.6,29.92,NNE,15,2.2,3.5,87,0.01,CLR,,0.02,WeatherDisplay:10.37,2013-02-04 21:50:00,
2013-02-04 16:51:00,28.0,24.6,29.92,NNE,24,1.8,3.5,87,0.01,CLR,,0.02,WeatherDisplay:10.37,2013-02-04 21:51:00,
2013-02-04 16:54:00,27.9,24.5,29.92,NNE,32,1.5,2.3,87,0.01,CLR,,0.02,WeatherDisplay:10.37,2013-02-04 21:54:00,
2013-02-04 16:55:00,27.9,24.5,29.92,NNE,32,0.3,2.3,87,0.00,CLR,,0.02,WeatherDisplay:10.37,2013-02-04 21:55:00,
2013-02-04 16:56:00,27.9,24.5,29.92,NNE,32,0.4,1.1,87,0.00,CLR,,0.02,WeatherDisplay:10.37,2013-02-04 21:56:00,
2013-02-04 16:59:00,27.9,24.5,29.92,NE,41,2.0,3.5,87,0.00,CLR,,0.02,WeatherDisplay:10.37,2013-02-04 21:59:00,
2013-02-04 17:00:00,27.9,24.5,29.92,NNE,31,2.0,3.0,87,0.00,CLR,,0.02,WeatherDisplay:10.37,2013-02-04 22:00:00,
2013-02-04 17:01:00,27.9,24.5,29.92,NNE,19,0.4,2.3,87,0.00,CLR,,0.02,WeatherDisplay:10.37,2013-02-04 22:01:00,
2013-02-04 17:04:00,27.9,24.3,29.92,NNE,30,0.9,2.3,86,0.00,CLR,,0.02,WeatherDisplay:10.37,2013-02-04 22:04:00,
2013-02-04 17:05:00,27.9,24.3,29.92,NNE,31,1.0,3.0,86,0.00,CLR,,0.02,WeatherDisplay:10.37,2013-02-04 22:05:00,
2013-02-04 17:06:00,27.9,24.3,29.92,NE,52,1.9,3.5,86,0.00,CLR,,0.02,WeatherDisplay:10.37,2013-02-04 22:06:00,
2013-02-04 17:09:00,27.8,24.2,29.92,NE,51,0.5,2.0,86,0.00,CLR,,0.02,WeatherDisplay:10.37,2013-02-04 22:09:00,
2013-02-04 17:10:00,27.8,24.2,29.92,NE,47,1.0,3.0,86,0.00,CLR,,0.02,WeatherDisplay:10.37,2013-02-04 22:10:00,
2013-02-04 17:11:00,27.8,24.4,29.92,NNE,16,1.2,3.5,87,0.00,CLR,,0.02,WeatherDisplay:10.37,2013-02-04 22:11:00,
2013-02-04 17:12:00,27.8,24.4,29.92,North,10,1.5,3.5,87,0.00,CLR,,0.02,WeatherDisplay:10.37,2013-02-04 22:12:00,
2013-02-04 17:14:00,27.8,24.4,29.92,NNE,28,1.3,3.5,87,0.00,CLR,,0.02,WeatherDisplay:10.37,2013-02-04 22:14:00,
2013-02-04 17:15:00,27.8,24.4,29.92,NNE,24,1.1,2.3,87,0.00,CLR,,0.02,WeatherDisplay:10.37,2013-02-04 22:15:00,
2013-02-04 17:16:00,27.8,24.4,29.92,NNE,19,2.0,3.5,87,0.00,CLR,,0.02,WeatherDisplay:10.37,2013-02-04 22:16:00,
2013-02-04 17:17:00,27.8,24.4,29.91,NNE,15,1.4,3.5,87,0.00,CLR,,0.02,WeatherDisplay:10.37,2013-02-04 22:17:00,
2013-02-04 17:19:00,27.8,24.4,29.92,NNW,344,1.1,3.5,87,0.00,CLR,,0.02,WeatherDisplay:10.37,2013-02-04 22:19:00,
2013-02-04 17:20:00,27.8,24.4,29.92,NNE,17,1.0,3.0,87,0.00,CLR,,0.02,WeatherDisplay:10.37,2013-02-04 22:20:00,
2013-02-04 17:21:00,27.7,24.3,29.91,NNE,21,1.8,3.5,87,0.00,CLR,,0.02,WeatherDisplay:10.37,2013-02-04 22:21:00,
2013-02-04 17:22:00,27.7,24.3,29.91,North,5,2.9,3.5,87,0.00,CLR,,0.02,WeatherDisplay:10.37,2013-02-04 22:22:00,
2013-02-04 17:24:00,27.7,24.3,29.91,NW,313,2.3,3.5,87,0.00,CLR,,0.02,WeatherDisplay:10.37,2013-02-04 22:24:00,
2013-02-04 17:25:00,27.7,24.3,29.91,North,10,2.1,3.5,87,0.00,CLR,,0.02,WeatherDisplay:10.37,2013-02-04 22:25:00,
2013-02-04 17:26:00,27.6,24.2,29.91,NNE,15,2.8,4.0,87,0.00,CLR,,0.02,WeatherDisplay:10.37,2013-02-04 22:26:00,
2013-02-04 17:27:00,27.6,24.2,29.91,North,5,2.6,3.5,87,0.00,CLR,,0.02,WeatherDisplay:10.37,2013-02-04 22:27:00,
2013-02-04 17:29:00,27.5,24.1,29.91,NNE,19,2.7,3.5,87,0.00,CLR,,0.02,WeatherDisplay:10.37,2013-02-04 22:29:00,
2013-02-04 17:30:00,27.5,24.1,29.91,NNE,20,2.4,3.5,87,0.00,CLR,,0.02,WeatherDisplay:10.37,2013-02-04 22:30:00,
2013-02-04 17:31:00,27.5,24.1,29.91,NNE,27,2.2,3.5,87,0.00,CLR,,0.02,WeatherDisplay:10.37,2013-02-04 22:31:00,
2013-02-04 17:32:00,27.4,24.0,29.91,North,350,2.1,3.5,87,0.00,CLR,,0.02,WeatherDisplay:10.37,2013-02-04 22:32:00,
2013-02-04 17:35:00,27.4,24.3,29.91,NNE,14,2.1,3.5,88,0.00,CLR,,0.02,WeatherDisplay:10.37,2013-02-04 22:35:00,
2013-02-04 17:37:00,27.3,23.9,29.90,NNE,16,2.1,3.5,87,0.00,CLR,,0.02,WeatherDisplay:10.37,2013-02-04 22:37:00,
2013-02-04 17:40:00,27.2,23.8,29.90,NNE,22,2.3,3.5,87,0.00,CLR,,0.02,WeatherDisplay:10.37,2013-02-04 22:40:00,
2013-02-04 17:42:00,27.1,23.7,29.90,North,10,2.6,3.5,87,0.00,CLR,,0.02,WeatherDisplay:10.37,2013-02-04 22:42:00,
2013-02-04 17:45:00,27.0,23.9,29.90,North,11,1.4,3.5,88,0.00,CLR,,0.02,WeatherDisplay:10.37,2013-02-04 22:45:00,
2013-02-04 17:47:00,27.0,23.9,29.90,NNE,17,2.3,3.5,88,0.00,CLR,,0.02,WeatherDisplay:10.37,2013-02-04 22:47:00,
2013-02-04 17:50:00,27.0,23.9,29.90,NE,46,2.6,4.0,88,0.00,CLR,,0.02,WeatherDisplay:10.37,2013-02-04 22:50:00,
2013-02-04 17:52:00,27.0,23.9,29.90,NNE,19,2.4,3.5,88,0.00,CLR,,0.02,WeatherDisplay:10.37,2013-02-04 22:52:00,
2013-02-04 17:55:00,26.9,23.8,29.91,NNE,13,1.9,3.5,88,0.00,CLR,,0.02,WeatherDisplay:10.37,2013-02-04 22:55:00,
2013-02-04 17:57:00,26.9,23.8,29.91,NNE,13,2.2,3.5,88,0.00,CLR,,0.02,WeatherDisplay:10.37,2013-02-04 22:57:00,
2013-02-04 18:00:00,26.8,23.7,29.91,NNE,16,1.1,3.0,88,0.00,CLR,,0.02,WeatherDisplay:10.37,2013-02-04 23:00:00,
2013-02-04 18:01:00,26.8,23.7,29.91,NNE,13,1.3,2.3,88,0.00,CLR,,0.02,WeatherDisplay:10.37,2013-02-04 23:01:00,
2013-02-04 18:02:00,26.8,23.7,29.91,NNE,15,2.6,3.5,88,0.00,CLR,,0.02,WeatherDisplay:10.37,2013-02-04 23:02:00,
2013-02-04 18:03:00,26.8,23.7,29.91,NNE,19,2.0,3.5,88,0.00,CLR,,0.02,WeatherDisplay:10.37,2013-02-04 23:03:00,
2013-02-04 18:05:00,26.8,23.7,29.92,North,11,3.1,3.5,88,0.00,CLR,,0.02,WeatherDisplay:10.37,2013-02-04 23:05:00,
2013-02-04 18:06:00,26.7,23.6,29.92,NNE,12,1.8,3.5,88,0.00,CLR,,0.02,WeatherDisplay:10.37,2013-02-04 23:06:00,
2013-02-04 18:07:00,26.7,23.6,29.92,NNE,19,2.9,3.5,88,0.00,CLR,,0.02,WeatherDisplay:10.37,2013-02-04 23:07:00,
2013-02-04 18:08:00,26.7,23.6,29.92,NNE,15,3.0,4.0,88,0.00,CLR,,0.02,WeatherDisplay:10.37,2013-02-04 23:08:00,
2013-02-04 18:10:00,26.6,23.5,29.91,NNE,13,2.2,3.5,88,0.00,CLR,,0.02,WeatherDisplay:10.37,2013-02-04 23:10:00,
2013-02-04 18:11:00,26.7,23.6,29.91,NNE,25,2.5,3.5,88,0.00,CLR,,0.02,WeatherDisplay:10.37,2013-02-04 23:11:00,
2013-02-04 18:12:00,26.7,23.6,29.92,North,360,1.9,3.5,88,0.00,CLR,,0.02,WeatherDisplay:10.37,2013-02-04 23:12:00,
2013-02-04 18:13:00,26.7,23.6,29.92,NNE,15,1.2,2.3,88,0.00,CLR,,0.02,WeatherDisplay:10.37,2013-02-04 23:13:00,
2013-02-04 18:16:00,26.6,23.5,29.92,NNE,17,1.7,3.5,88,0.00,CLR,,0.02,WeatherDisplay:10.37,2013-02-04 23:16:00,
2013-02-04 18:17:00,26.6,23.5,29.92,NNE,22,1.3,3.5,88,0.00,CLR,,0.02,WeatherDisplay:10.37,2013-02-04 23:17:00,
2013-02-04 18:18:00,26.6,23.5,29.92,NNE,21,2.0,3.5,88,0.00,CLR,,0.02,WeatherDisplay:10.37,2013-02-04 23:18:00,
2013-02-04 18:21:00,26.5,23.4,29.92,NNE,15,1.5,3.5,88,0.00,CLR,,0.02,WeatherDisplay:10.37,2013-02-04 23:21:00,
2013-02-04 18:22:00,26.5,23.4,29.92,NNE,15,1.3,2.3,88,0.00,CLR,,0.02,WeatherDisplay:10.37,2013-02-04 23:22:00,
2013-02-04 18:23:00,26.5,23.4,29.92,NNE,15,1.1,2.3,88,0.00,CLR,,0.02,WeatherDisplay:10.37,2013-02-04 23:23:00,
2013-02-04 18:26:00,26.5,23.4,29.92,NNE,13,1.5,3.5,88,0.00,CLR,,0.02,WeatherDisplay:10.37,2013-02-04 23:26:00,
2013-02-04 18:27:00,26.5,23.4,29.92,NNW,340,1.8,3.5,88,0.00,CLR,,0.02,WeatherDisplay:10.37,2013-02-04 23:27:00,
2013-02-04 18:28:00,26.5,23.4,29.92,NNE,12,1.7,3.5,88,0.00,CLR,,0.02,WeatherDisplay:10.37,2013-02-04 23:28:00,
2013-02-04 18:31:00,26.5,23.4,29.92,NNE,18,1.6,3.5,88,0.00,CLR,,0.02,WeatherDisplay:10.37,2013-02-04 23:31:00,
2013-02-04 18:33:00,26.5,23.4,29.92,NNE,15,1.6,2.3,88,0.00,CLR,,0.02,WeatherDisplay:10.37,2013-02-04 23:33:00,
2013-02-04 18:34:00,26.5,23.4,29.92,NNE,14,0.6,2.3,88,0.00,CLR,,0.02,WeatherDisplay:10.37,2013-02-04 23:34:00,
2013-02-04 18:36:00,26.5,23.4,29.93,NNE,13,0.1,1.1,88,0.00,CLR,,0.02,WeatherDisplay:10.37,2013-02-04 23:36:00,
2013-02-04 18:37:00,26.5,23.4,29.93,NNE,13,0.1,1.1,88,0.00,CLR,,0.02,WeatherDisplay:10.37,2013-02-04 23:37:00,
2013-02-04 18:38:00,26.5,23.4,29.93,NNE,13,0.4,1.1,88,0.00,CLR,,0.02,WeatherDisplay:10.37,2013-02-04 23:38:00,
2013-02-04 18:39:00,26.5,23.7,29.93,NNE,13,0.8,2.3,89,0.00,CLR,,0.02,WeatherDisplay:10.37,2013-02-04 23:39:00,
2013-02-04 18:41:00,26.5,23.4,29.93,NNE,13,0.9,2.3,88,0.00,CLR,,0.02,WeatherDisplay:10.37,2013-02-04 23:41:00,
2013-02-04 18:42:00,26.5,23.7,29.93,NNE,13,0.3,2.3,89,0.00,CLR,,0.02,WeatherDisplay:10.37,2013-02-04 23:42:00,
2013-02-04 18:43:00,26.4,23.6,29.93,NNE,13,0.2,2.0,89,0.00,CLR,,0.02,WeatherDisplay:10.37,2013-02-04 23:43:00,
2013-02-04 18:44:00,26.4,23.6,29.93,NNE,13,1.2,2.3,89,0.00,CLR,,0.02,WeatherDisplay:10.37,2013-02-04 23:44:00,
2013-02-04 18:46:00,26.4,23.3,29.93,North,5,1.6,3.5,88,0.00,CLR,,0.02,WeatherDisplay:10.37,2013-02-04 23:46:00,
2013-02-04 18:47:00,26.4,23.3,29.93,North,5,1.3,3.5,88,0.00,CLR,,0.02,WeatherDisplay:10.37,2013-02-04 23:47:00,
2013-02-04 18:48:00,26.4,23.3,29.94,North,5,0.9,2.0,88,0.00,CLR,,0.02,WeatherDisplay:10.37,2013-02-04 23:48:00,
2013-02-04 18:49:00,26.4,23.3,29.94,North,5,0.6,2.3,88,0.00,CLR,,0.02,WeatherDisplay:10.37,2013-02-04 23:49:00,
2013-02-04 18:51:00,26.4,23.3,29.94,North,360,1.1,2.3,88,0.00,CLR,,0.02,WeatherDisplay:10.37,2013-02-04 23:51:00,
2013-02-04 18:52:00,26.4,23.3,29.94,North,360,1.0,2.3,88,0.00,CLR,,0.02,WeatherDisplay:10.37,2013-02-04 23:52:00,
2013-02-04 18:53:00,26.4,23.3,29.94,North,9,1.2,3.5,88,0.00,CLR,,0.02,WeatherDisplay:10.37,2013-02-04 23:53:00,
2013-02-04 18:54:00,26.4,23.3,29.94,North,360,1.5,3.5,88,0.00,CLR,,0.02,WeatherDisplay:10.37,2013-02-04 23:54:00,
2013-02-04 18:56:00,26.4,23.3,29.95,NNW,335,1.9,3.5,88,0.00,CLR,,0.02,WeatherDisplay:10.37,2013-02-04 23:56:00,
2013-02-04 18:57:00,26.3,23.2,29.95,North,351,2.0,3.5,88,0.00,CLR,,0.02,WeatherDisplay:10.37,2013-02-04 23:57:00,
2013-02-04 18:58:00,26.3,23.2,29.95,North,349,2.1,3.5,88,0.00,CLR,,0.02,WeatherDisplay:10.37,2013-02-04 23:58:00,
2013-02-04 18:59:00,26.3,23.2,29.95,North,360,2.1,4.0,88,0.00,CLR,,0.02,WeatherDisplay:10.37,2013-02-04 23:59:00,
2013-02-04 19:01:00,26.3,23.2,29.95,North,5,2.1,4.6,88,0.00,CLR,,0.02,WeatherDisplay:10.37,2013-02-05 00:01:00,
2013-02-04 19:03:00,26.3,23.2,29.95,NNW,345,1.9,3.5,88,0.00,CLR,,0.02,WeatherDisplay:10.37,2013-02-05 00:03:00,
2013-02-04 19:04:00,26.3,23.2,29.95,North,5,2.1,3.5,88,0.00,CLR,,0.02,WeatherDisplay:10.37,2013-02-05 00:04:00,
2013-02-04 19:06:00,26.3,23.2,29.95,NNW,337,2.4,3.5,88,0.00,CLR,,0.02,WeatherDisplay:10.37,2013-02-05 00:06:00,
2013-02-04 19:08:00,26.3,23.2,29.95,North,355,2.9,5.0,88,0.00,CLR,,0.02,WeatherDisplay:10.37,2013-02-05 00:08:00,
2013-02-04 19:09:00,26.3,23.2,29.95,North,360,2.6,4.6,88,0.00,CLR,,0.02,WeatherDisplay:10.37,2013-02-05 00:09:00,
2013-02-04 19:11:00,26.2,23.1,29.95,NNW,338,3.5,4.6,88,0.00,CLR,,0.02,WeatherDisplay:10.37,2013-02-05 00:11:00,
2013-02-04 19:13:00,26.2,23.1,29.96,North,5,2.6,4.0,88,0.00,CLR,,0.02,WeatherDisplay:10.37,2013-02-05 00:13:00,
2013-02-04 19:14:00,26.2,23.1,29.96,North,355,3.1,6.0,88,0.00,CLR,,0.02,WeatherDisplay:10.37,2013-02-05 00:14:00,
2013-02-04 19:16:00,26.2,23.1,29.96,NNE,12,4.3,5.8,88,0.00,CLR,,0.02,WeatherDisplay:10.37,2013-02-05 00:16:00,
2013-02-04 19:18:00,26.2,23.1,29.96,NNW,336,3.6,4.6,88,0.00,CLR,,0.02,WeatherDisplay:10.37,2013-02-05 00:18:00,
2013-02-04 19:19:00,26.2,23.1,29.96,North,360,2.6,3.5,88,0.00,CLR,,0.02,WeatherDisplay:10.37,2013-02-05 00:19:00,
2013-02-04 19:22:00,26.2,23.1,29.96,North,350,3.7,7.0,88,0.00,CLR,,0.02,WeatherDisplay:10.37,2013-02-05 00:22:00,
2013-02-04 19:23:00,26.1,23.0,29.97,NNW,331,3.9,6.9,88,0.00,CLR,,0.02,WeatherDisplay:10.37,2013-02-05 00:23:00,
2013-02-04 19:24:00,26.1,23.0,29.97,NNW,333,2.0,4.6,88,0.00,CLR,,0.02,WeatherDisplay:10.37,2013-02-05 00:24:00,
2013-02-04 19:27:00,26.1,23.0,29.97,NNW,340,2.8,6.0,88,0.00,CLR,,0.02,WeatherDisplay:10.37,2013-02-05 00:27:00,
2013-02-04 19:28:00,26.1,23.0,29.97,NW,319,2.7,5.8,88,0.00,CLR,,0.02,WeatherDisplay:10.37,2013-02-05 00:28:00,
2013-02-04 19:30:00,26.1,23.0,29.97,North,351,2.0,6.0,88,0.00,CLR,,0.02,WeatherDisplay:10.37,2013-02-05 00:30:00,
2013-02-04 19:32:00,26.1,23.0,29.97,NE,47,2.1,5.8,88,0.00,CLR,,0.02,WeatherDisplay:10.37,2013-02-05 00:32:00,
2013-02-04 19:33:00,26.0,22.9,29.97,NNE,15,2.8,3.5,88,0.00,CLR,,0.02,WeatherDisplay:10.37,2013-02-05 00:33:00,
2013-02-04 19:35:00,26.0,22.9,29.97,NW,321,1.7,3.5,88,0.00,CLR,,0.02,WeatherDisplay:10.37,2013-02-05 00:35:00,
2013-02-04 19:37:00,26.0,23.2,29.97,North,5,3.6,4.6,89,0.00,CLR,,0.02,WeatherDisplay:10.37,2013-02-05 00:37:00,
2013-02-04 19:38:00,26.0,22.9,29.97,NNE,26,2.9,5.8,88,0.00,CLR,,0.02,WeatherDisplay:10.37,2013-02-05 00:38:00,
2013-02-04 19:40:00,26.0,22.9,29.97,North,349,4.1,4.6,88,0.00,CLR,,0.02,WeatherDisplay:10.37,2013-02-05 00:40:00,
2013-02-04 19:42:00,25.9,23.1,29.97,NE,34,1.2,3.5,89,0.00,CLR,,0.02,WeatherDisplay:10.37,2013-02-05 00:42:00,
2013-02-04 19:44:00,25.9,23.1,29.98,North,360,4.3,4.3,89,0.00,CLR,,0.02,WeatherDisplay:10.37,2013-02-05 00:44:00,
2013-02-04 19:45:00,25.9,23.1,29.98,North,355,2.6,3.5,89,0.00,CLR,,0.02,WeatherDisplay:10.37,2013-02-05 00:45:00,
2013-02-04 19:47:00,25.9,23.1,29.98,North,9,4.3,5.8,89,0.00,CLR,,0.02,WeatherDisplay:10.37,2013-02-05 00:47:00,
2013-02-04 19:49:00,25.8,23.0,29.98,NNE,13,3.1,4.6,89,0.00,CLR,,0.02,WeatherDisplay:10.37,2013-02-05 00:49:00,
2013-02-04 19:50:00,25.8,23.0,29.98,NNE,17,2.7,3.5,89,0.00,CLR,,0.02,WeatherDisplay:10.37,2013-02-05 00:50:00,
2013-02-04 19:52:00,25.8,23.0,29.98,North,360,3.0,3.5,89,0.00,CLR,,0.02,WeatherDisplay:10.37,2013-02-05 00:52:00,
2013-02-04 19:54:00,25.8,23.0,29.98,North,5,3.0,5.0,89,0.00,CLR,,0.02,WeatherDisplay:10.37,2013-02-05 00:54:00,
2013-02-04 19:55:00,25.8,23.0,29.98,North,5,2.7,5.0,89,0.00,CLR,,0.02,WeatherDisplay:10.37,2013-02-05 00:55:00,
2013-02-04 19:58:00,25.8,23.0,29.98,NNW,327,3.3,4.6,89,0.00,CLR,,0.02,WeatherDisplay:10.37,2013-02-05 00:58:00,
2013-02-04 19:59:00,25.8,23.0,29.98,North,5,3.0,4.0,89,0.00,CLR,,0.02,WeatherDisplay:10.37,2013-02-05 00:59:00,
2013-02-04 20:00:00,25.7,22.9,29.98,North,11,3.0,3.5,89,0.00,CLR,,0.02,WeatherDisplay:10.37,2013-02-05 01:00:00,
2013-02-04 20:03:00,25.7,22.9,29.98,North,360,3.8,5.8,89,0.00,CLR,,0.02,WeatherDisplay:10.37,2013-02-05 01:03:00,
2013-02-04 20:04:00,25.7,22.9,29.98,NNE,13,3.8,5.8,89,0.00,CLR,,0.02,WeatherDisplay:10.37,2013-02-05 01:04:00,
2013-02-04 20:05:00,25.7,22.9,29.98,NNW,338,4.6,5.8,89,0.00,CLR,,0.02,WeatherDisplay:10.37,2013-02-05 01:05:00,
2013-02-04 20:06:00,25.7,22.9,29.98,North,350,4.7,6.9,89,0.00,CLR,,0.02,WeatherDisplay:10.37,2013-02-05 01:06:00,
2013-02-04 20:09:00,25.7,22.9,29.98,North,5,2.7,3.5,89,0.00,CLR,,0.02,WeatherDisplay:10.37,2013-02-05 01:09:00,
2013-02-04 20:10:00,25.7,22.9,29.98,NNW,345,2.0,3.5,89,0.00,CLR,,0.02,WeatherDisplay:10.37,2013-02-05 01:10:00,
2013-02-04 20:11:00,25.7,22.9,29.98,NNE,22,1.8,3.5,89,0.00,CLR,,0.02,WeatherDisplay:10.37,2013-02-05 01:11:00,
2013-02-04 20:14:00,25.6,22.8,29.98,NNE,13,0.6,2.3,89,0.00,CLR,,0.02,WeatherDisplay:10.37,2013-02-05 01:14:00,
2013-02-04 20:15:00,25.6,22.8,29.98,NNE,23,1.6,2.3,89,0.00,CLR,,0.02,WeatherDisplay:10.37,2013-02-05 01:15:00,
2013-02-04 20:16:00,25.6,22.8,29.98,North,5,1.3,2.3,89,0.00,CLR,,0.02,WeatherDisplay:10.37,2013-02-05 01:16:00,
2013-02-04 20:19:00,25.6,22.8,29.98,North,355,1.2,3.5,89,0.00,CLR,,0.02,WeatherDisplay:10.37,2013-02-05 01:19:00,
2013-02-04 20:21:00,25.6,22.8,29.98,NNE,15,1.1,2.0,89,0.00,CLR,,0.02,WeatherDisplay:10.37,2013-02-05 01:21:00,
2013-02-04 20:24:00,25.5,22.7,29.99,North,5,2.3,4.0,89,0.00,CLR,,0.02,WeatherDisplay:10.37,2013-02-05 01:24:00,
2013-02-04 20:26:00,25.4,22.6,29.98,North,355,0.7,3.5,89,0.00,CLR,,0.02,WeatherDisplay:10.37,2013-02-05 01:26:00,
2013-02-04 20:29:00,25.4,22.6,29.99,North,5,1.4,2.3,89,0.00,CLR,,0.02,WeatherDisplay:10.37,2013-02-05 01:29:00,
2013-02-04 20:31:00,25.4,22.6,29.99,North,10,1.2,3.5,89,0.00,CLR,,0.02,WeatherDisplay:10.37,2013-02-05 01:31:00,
2013-02-04 20:34:00,25.3,22.8,29.98,NNE,12,0.6,2.3,90,0.00,CLR,,0.02,WeatherDisplay:10.37,2013-02-05 01:34:00,
2013-02-04 20:35:00,25.3,22.8,29.99,NNE,12,1.0,2.0,90,0.00,CLR,,0.02,WeatherDisplay:10.37,2013-02-05 01:35:00,
2013-02-04 20:36:00,25.3,22.8,29.99,NNE,12,0.4,2.3,90,0.00,CLR,,0.02,WeatherDisplay:10.37,2013-02-05 01:36:00,
2013-02-04 20:39:00,25.2,22.7,29.99,NW,325,2.0,3.5,90,0.00,CLR,,0.02,WeatherDisplay:10.37,2013-02-05 01:39:00,
2013-02-04 20:40:00,25.2,22.7,29.99,North,5,2.0,3.0,90,0.00,CLR,,0.02,WeatherDisplay:10.37,2013-02-05 01:40:00,
2013-02-04 20:41:00,25.2,22.7,29.99,North,355,1.9,3.5,90,0.00,CLR,,0.02,WeatherDisplay:10.37,2013-02-05 01:41:00,
2013-02-04 20:44:00,25.1,22.6,29.99,North,350,1.8,3.5,90,0.00,CLR,,0.02,WeatherDisplay:10.37,2013-02-05 01:44:00,
2013-02-04 20:45:00,25.1,22.6,29.99,NNW,335,2.2,4.0,90,0.00,CLR,,0.02,WeatherDisplay:10.37,2013-02-05 01:45:00,
2013-02-04 20:46:00,25.1,22.6,29.99,North,355,2.2,3.5,90,0.00,CLR,,0.02,WeatherDisplay:10.37,2013-02-05 01:46:00,
2013-02-04 20:47:00,25.1,22.6,29.99,North,355,2.0,3.5,90,0.00,CLR,,0.02,WeatherDisplay:10.37,2013-02-05 01:47:00,
2013-02-04 20:49:00,25.0,22.5,29.99,North,5,2.1,3.5,90,0.00,CLR,,0.02,WeatherDisplay:10.37,2013-02-05 01:49:00,
2013-02-04 20:50:00,25.0,22.5,29.99,North,360,2.3,3.5,90,0.00,CLR,,0.02,WeatherDisplay:10.37,2013-02-05 01:50:00,
2013-02-04 20:51:00,25.0,22.5,29.99,North,5,2.3,3.5,90,0.00,CLR,,0.02,WeatherDisplay:10.37,2013-02-05 01:51:00,
2013-02-04 20:52:00,25.0,22.5,29.99,North,360,1.8,3.5,90,0.00,CLR,,0.02,WeatherDisplay:10.37,2013-02-05 01:52:00,
2013-02-04 20:54:00,24.9,22.4,29.99,North,355,2.0,3.5,90,0.00,CLR,,0.02,WeatherDisplay:10.37,2013-02-05 01:54:00,
2013-02-04 20:56:00,24.9,22.4,29.99,North,5,2.4,3.5,90,0.00,CLR,,0.02,WeatherDisplay:10.37,2013-02-05 01:56:00,
2013-02-04 20:57:00,24.9,22.4,29.99,North,355,2.0,3.5,90,0.00,CLR,,0.02,WeatherDisplay:10.37,2013-02-05 01:57:00,
2013-02-04 20:59:00,24.9,22.4,29.99,NNE,26,2.6,3.5,90,0.00,CLR,,0.02,WeatherDisplay:10.37,2013-02-05 01:59:00,
2013-02-04 21:01:00,24.8,22.3,29.99,NNW,341,3.3,3.5,90,0.00,CLR,,0.02,WeatherDisplay:10.37,2013-02-05 02:01:00,
2013-02-04 21:03:00,24.8,22.3,29.99,NNW,339,2.4,3.5,90,0.00,CLR,,0.02,WeatherDisplay:10.37,2013-02-05 02:03:00,
2013-02-04 21:04:00,24.8,22.3,30.00,NNW,327,2.3,3.5,90,0.00,CLR,,0.02,WeatherDisplay:10.37,2013-02-05 02:04:00,
2013-02-04 21:06:00,24.8,22.3,30.00,NNW,331,2.6,3.5,90,0.00,CLR,,0.02,WeatherDisplay:10.37,2013-02-05 02:06:00,
2013-02-04 21:08:00,24.8,22.3,30.00,NNW,330,1.8,3.5,90,0.00,CLR,,0.02,WeatherDisplay:10.37,2013-02-05 02:08:00,
2013-02-04 21:09:00,24.8,22.3,30.00,NW,319,1.9,3.5,90,0.00,CLR,,0.02,WeatherDisplay:10.37,2013-02-05 02:09:00,
2013-02-04 21:11:00,24.9,22.4,30.00,North,5,2.1,3.5,90,0.00,CLR,,0.02,WeatherDisplay:10.37,2013-02-05 02:11:00,
2013-02-04 21:13:00,24.9,22.4,30.00,North,5,2.7,4.0,90,0.00,CLR,,0.02,WeatherDisplay:10.37,2013-02-05 02:13:00,
2013-02-04 21:14:00,24.9,22.4,30.00,North,355,1.8,3.5,90,0.00,CLR,,0.02,WeatherDisplay:10.37,2013-02-05 02:14:00,
2013-02-04 21:16:00,24.9,22.4,30.00,NNW,344,2.1,3.5,90,0.00,CLR,,0.02,WeatherDisplay:10.37,2013-02-05 02:16:00,
2013-02-04 21:17:00,24.9,22.4,30.00,NNW,347,1.9,3.5,90,0.00,CLR,,0.02,WeatherDisplay:10.37,2013-02-05 02:17:00,
2013-02-04 21:18:00,25.0,22.5,30.00,NNW,341,1.2,3.5,90,0.00,CLR,,0.02,WeatherDisplay:10.37,2013-02-05 02:18:00,
2013-02-04 21:19:00,24.9,22.4,30.00,NNW,346,0.9,2.3,90,0.00,CLR,,0.02,WeatherDisplay:10.37,2013-02-05 02:19:00,
2013-02-04 21:21:00,24.9,22.4,30.00,North,360,0.5,2.3,90,0.00,CLR,,0.02,WeatherDisplay:10.37,2013-02-05 02:21:00,
2013-02-04 21:22:00,24.9,22.4,30.00,North,9,1.4,2.3,90,0.00,CLR,,0.02,WeatherDisplay:10.37,2013-02-05 02:22:00,
2013-02-04 21:23:00,25.0,22.5,30.00,North,355,1.7,2.3,90,0.00,CLR,,0.02,WeatherDisplay:10.37,2013-02-05 02:23:00,
2013-02-04 21:24:00,24.9,22.4,30.00,North,9,1.4,3.5,90,0.00,CLR,,0.02,WeatherDisplay:10.37,2013-02-05 02:24:00,
2013-02-04 21:26:00,24.9,22.4,30.00,North,5,0.8,2.3,90,0.00,CLR,,0.02,WeatherDisplay:10.37,2013-02-05 02:26:00,
2013-02-04 21:27:00,25.0,22.5,29.99,North,360,1.1,3.5,90,0.00,CLR,,0.02,WeatherDisplay:10.37,2013-02-05 02:27:00,
2013-02-04 21:28:00,24.9,22.4,29.99,North,360,0.1,1.1,90,0.00,CLR,,0.02,WeatherDisplay:10.37,2013-02-05 02:28:00,
2013-02-04 21:29:00,24.9,22.4,29.99,North,360,0.1,1.1,90,0.00,CLR,,0.02,WeatherDisplay:10.37,2013-02-05 02:29:00,
2013-02-04 21:31:00,24.9,22.4,29.99,North,360,0.1,0.0,90,0.00,CLR,,0.02,WeatherDisplay:10.37,2013-02-05 02:31:00,
2013-02-04 21:32:00,24.9,22.4,29.99,North,360,0.1,1.1,90,0.00,CLR,,0.02,WeatherDisplay:10.37,2013-02-05 02:32:00,
2013-02-04 21:33:00,24.9,22.4,29.99,North,360,0.0,0.0,90,0.00,CLR,,0.02,WeatherDisplay:10.37,2013-02-05 02:33:00,
2013-02-04 21:34:00,24.9,22.4,29.99,North,360,0.0,0.0,90,0.00,CLR,,0.02,WeatherDisplay:10.37,2013-02-05 02:34:00,
2013-02-04 21:36:00,24.9,22.4,29.99,North,360,0.0,0.0,90,0.00,CLR,,0.02,WeatherDisplay:10.37,2013-02-05 02:36:00,
2013-02-04 21:37:00,24.9,22.4,29.99,North,360,0.0,0.0,90,0.00,CLR,,0.02,WeatherDisplay:10.37,2013-02-05 02:37:00,
2013-02-04 21:39:00,24.8,22.3,29.99,North,360,0.0,0.0,90,0.00,CLR,,0.02,WeatherDisplay:10.37,2013-02-05 02:39:00,
2013-02-04 21:42:00,24.8,22.3,29.98,North,360,0.0,0.0,90,0.00,CLR,,0.02,WeatherDisplay:10.37,2013-02-05 02:42:00,
2013-02-04 21:44:00,24.8,22.3,29.98,North,360,1.4,2.3,90,0.00,CLR,,0.02,WeatherDisplay:10.37,2013-02-05 02:44:00,
2013-02-04 21:47:00,24.7,22.2,29.98,North,5,1.4,2.3,90,0.00,CLR,,0.02,WeatherDisplay:10.37,2013-02-05 02:47:00,
2013-02-04 21:49:00,24.6,22.1,29.98,NNE,12,1.3,2.3,90,0.00,CLR,,0.02,WeatherDisplay:10.37,2013-02-05 02:49:00,
2013-02-04 21:52:00,24.5,22.0,29.98,North,11,0.0,1.1,90,0.00,CLR,,0.02,WeatherDisplay:10.37,2013-02-05 02:52:00,
2013-02-04 21:53:00,24.6,22.1,29.98,North,11,0.6,2.3,90,0.00,CLR,,0.02,WeatherDisplay:10.37,2013-02-05 02:53:00,
2013-02-04 21:54:00,24.5,22.0,29.98,North,11,0.1,1.1,90,0.00,CLR,,0.02,WeatherDisplay:10.37,2013-02-05 02:54:00,
2013-02-04 21:57:00,24.5,22.0,29.98,North,11,0.6,1.1,90,0.00,CLR,,0.02,WeatherDisplay:10.37,2013-02-05 02:57:00,
2013-02-04 21:58:00,24.5,22.0,29.98,NNE,12,0.3,1.1,90,0.00,CLR,,0.02,WeatherDisplay:10.37,2013-02-05 02:58:00,
2013-02-04 21:59:00,24.5,22.0,29.98,North,11,0.4,1.1,90,0.00,CLR,,0.02,WeatherDisplay:10.37,2013-02-05 02:59:00,
2013-02-04 22:00:00,24.5,22.0,29.98,North,11,0.3,2.3,90,0.00,CLR,,0.02,WeatherDisplay:10.37,2013-02-05 03:00:00,
2013-02-04 22:02:00,24.5,22.2,29.98,NNE,15,0.0,2.3,91,0.00,CLR,,0.02,WeatherDisplay:10.37,2013-02-05 03:02:00,
2013-02-04 22:03:00,24.5,22.2,29.99,NNE,16,0.0,0.0,91,0.00,CLR,,0.02,WeatherDisplay:10.37,2013-02-05 03:03:00,
2013-02-04 22:04:00,24.5,22.2,29.99,NNW,346,0.7,1.1,91,0.00,CLR,,0.02,WeatherDisplay:10.37,2013-02-05 03:04:00,
2013-02-04 22:05:00,24.5,22.2,29.99,NNW,346,0.7,1.1,91,0.00,CLR,,0.02,WeatherDisplay:10.37,2013-02-05 03:05:00,
2013-02-04 22:07:00,24.5,22.2,29.98,North,355,0.5,1.1,91,0.00,CLR,,0.02,WeatherDisplay:10.37,2013-02-05 03:07:00,
2013-02-04 22:08:00,24.5,22.2,29.98,North,355,0.2,1.1,91,0.00,CLR,,0.02,WeatherDisplay:10.37,2013-02-05 03:08:00,
2013-02-04 22:10:00,24.5,22.2,29.99,North,355,0.2,1.1,91,0.00,CLR,,0.02,WeatherDisplay:10.37,2013-02-05 03:10:00,
2013-02-04 22:13:00,24.5,22.2,29.99,North,9,0.3,1.1,91,0.00,CLR,,0.02,WeatherDisplay:10.37,2013-02-05 03:13:00,
2013-02-04 22:15:00,24.5,22.2,29.99,North,355,1.3,2.3,91,0.00,CLR,,0.02,WeatherDisplay:10.37,2013-02-05 03:15:00,
2013-02-04 22:18:00,24.5,22.2,29.99,North,355,0.0,0.0,91,0.00,CLR,,0.02,WeatherDisplay:10.37,2013-02-05 03:18:00,
2013-02-04 22:20:00,24.5,22.2,29.99,North,355,0.2,1.1,91,0.00,CLR,,0.02,WeatherDisplay:10.37,2013-02-05 03:20:00,
2013-02-04 22:23:00,24.5,22.2,29.99,North,355,0.0,1.1,91,0.00,CLR,,0.02,WeatherDisplay:10.37,2013-02-05 03:23:00,
2013-02-04 22:25:00,24.5,22.2,29.99,North,355,0.2,1.1,91,0.00,CLR,,0.02,WeatherDisplay:10.37,2013-02-05 03:25:00,
2013-02-04 22:28:00,24.5,22.2,29.99,North,355,0.6,2.3,91,0.00,CLR,,0.02,WeatherDisplay:10.37,2013-02-05 03:28:00,
2013-02-04 22:29:00,24.5,22.2,29.99,North,355,0.8,2.3,91,0.00,CLR,,0.02,WeatherDisplay:10.37,2013-02-05 03:29:00,
2013-02-04 22:30:00,24.6,22.3,29.99,North,355,0.1,2.3,91,0.00,CLR,,0.02,WeatherDisplay:10.37,2013-02-05 03:30:00,
2013-02-04 22:33:00,24.6,22.3,29.99,North,355,0.7,2.3,91,0.00,CLR,,0.02,WeatherDisplay:10.37,2013-02-05 03:33:00,
2013-02-04 22:34:00,24.6,22.3,29.99,North,355,0.8,2.3,91,0.00,CLR,,0.02,WeatherDisplay:10.37,2013-02-05 03:34:00,
2013-02-04 22:35:00,24.6,22.3,30.00,NW,308,0.7,2.3,91,0.00,CLR,,0.02,WeatherDisplay:10.37,2013-02-05 03:35:00,
2013-02-04 22:38:00,24.6,22.3,30.00,NW,319,0.7,1.1,91,0.00,CLR,,0.02,WeatherDisplay:10.37,2013-02-05 03:38:00,
2013-02-04 22:39:00,24.7,22.4,30.00,NW,319,0.7,2.3,91,0.00,CLR,,0.02,WeatherDisplay:10.37,2013-02-05 03:39:00,
2013-02-04 22:40:00,24.6,22.3,30.00,NW,319,0.3,1.1,91,0.00,CLR,,0.02,WeatherDisplay:10.37,2013-02-05 03:40:00,
2013-02-04 22:41:00,24.7,22.4,30.01,NW,319,0.4,2.3,91,0.00,CLR,,0.02,WeatherDisplay:10.37,2013-02-05 03:41:00,
2013-02-04 22:44:00,24.7,22.4,30.01,NW,319,0.0,0.0,91,0.00,CLR,,0.02,WeatherDisplay:10.37,2013-02-05 03:44:00,
2013-02-04 22:45:00,24.7,22.4,30.01,NW,319,0.0,0.0,91,0.00,CLR,,0.02,WeatherDisplay:10.37,2013-02-05 03:45:00,
2013-02-04 22:46:00,24.7,22.4,30.01,NW,319,0.0,0.0,91,0.00,CLR,,0.02,WeatherDisplay:10.37,2013-02-05 03:46:00,
2013-02-04 22:49:00,24.7,22.4,30.01,NW,316,0.5,2.3,91,0.00,CLR,,0.02,WeatherDisplay:10.37,2013-02-05 03:49:00,
2013-02-04 22:50:00,24.7,22.4,30.01,NW,318,1.3,3.5,91,0.00,CLR,,0.02,WeatherDisplay:10.37,2013-02-05 03:50:00,
2013-02-04 22:51:00,24.8,22.5,30.01,NW,321,0.7,2.3,91,0.00,CLR,,0.02,WeatherDisplay:10.37,2013-02-05 03:51:00,
2013-02-04 22:54:00,24.7,22.4,30.01,NNW,345,1.2,2.3,91,0.00,CLR,,0.02,WeatherDisplay:10.37,2013-02-05 03:54:00,
2013-02-04 22:55:00,24.8,22.5,30.01,NNW,342,0.5,2.3,91,0.00,CLR,,0.02,WeatherDisplay:10.37,2013-02-05 03:55:00,
2013-02-04 22:56:00,24.8,22.5,30.01,NNW,342,0.1,1.1,91,0.00,CLR,,0.02,WeatherDisplay:10.37,2013-02-05 03:56:00,
2013-02-04 22:59:00,24.8,22.5,30.01,NNW,346,0.9,2.3,91,0.00,CLR,,0.02,WeatherDisplay:10.37,2013-02-05 03:59:00,
2013-02-04 23:00:00,24.8,22.5,30.01,NNW,346,0.6,2.3,91,0.00,CLR,,0.02,WeatherDisplay:10.37,2013-02-05 04:00:00,
2013-02-04 23:01:00,24.8,22.5,30.01,NNW,346,0.6,1.1,91,0.00,CLR,,0.02,WeatherDisplay:10.37,2013-02-05 04:01:00,
2013-02-04 23:05:00,24.8,22.5,30.01,NNW,346,0.0,2.0,91,0.00,CLR,,0.02,WeatherDisplay:10.37,2013-02-05 04:05:00,
2013-02-04 23:06:00,24.8,22.5,30.00,North,350,0.0,0.0,91,0.00,CLR,,0.02,WeatherDisplay:10.37,2013-02-05 04:06:00,
2013-02-04 23:10:00,24.8,22.5,30.00,North,349,0.0,0.0,91,0.00,CLR,,0.02,WeatherDisplay:10.37,2013-02-05 04:10:00,
2013-02-04 23:11:00,24.8,22.5,30.00,North,349,0.8,2.3,91,0.00,CLR,,0.02,WeatherDisplay:10.37,2013-02-05 04:11:00,
2013-02-04 23:15:00,24.8,22.5,30.00,North,355,0.3,1.1,91,0.00,CLR,,0.02,WeatherDisplay:10.37,2013-02-05 04:15:00,
2013-02-04 23:16:00,24.8,22.5,30.00,North,355,0.8,2.3,91,0.00,CLR,,0.02,WeatherDisplay:10.37,2013-02-05 04:16:00,
2013-02-04 23:20:00,24.7,22.4,30.00,NNW,346,0.2,1.1,91,0.00,CLR,,0.02,WeatherDisplay:10.37,2013-02-05 04:20:00,
2013-02-04 23:21:00,24.7,22.4,30.00,NNW,346,0.0,0.0,91,0.00,CLR,,0.02,WeatherDisplay:10.37,2013-02-05 04:21:00,
2013-02-04 23:25:00,24.7,22.4,30.00,NNW,346,0.0,0.0,91,0.00,CLR,,0.02,WeatherDisplay:10.37,2013-02-05 04:25:00,
2013-02-04 23:26:00,24.7,22.4,30.00,NNW,346,0.0,0.0,91,0.00,CLR,,0.02,WeatherDisplay:10.37,2013-02-05 04:26:00,
2013-02-04 23:30:00,24.7,22.4,30.00,NNW,346,0.0,0.0,91,0.00,CLR,,0.02,WeatherDisplay:10.37,2013-02-05 04:30:00,
2013-02-04 23:31:00,24.7,22.4,30.00,NNW,346,0.0,0.0,91,0.00,CLR,,0.02,WeatherDisplay:10.37,2013-02-05 04:31:00,
2013-02-04 23:35:00,24.6,22.3,29.99,NNW,346,0.1,1.1,91,0.00,CLR,,0.02,WeatherDisplay:10.37,2013-02-05 04:35:00,
2013-02-04 23:36:00,24.6,22.3,29.99,North,360,0.3,1.1,91,0.00,CLR,,0.02,WeatherDisplay:10.37,2013-02-05 04:36:00,
2013-02-04 23:37:00,24.6,22.3,29.99,North,360,0.4,1.1,91,0.00,CLR,,0.02,WeatherDisplay:10.37,2013-02-05 04:37:00,
2013-02-04 23:40:00,24.6,22.3,29.99,North,5,0.0,0.0,91,0.00,CLR,,0.02,WeatherDisplay:10.37,2013-02-05 04:40:00,
2013-02-04 23:41:00,24.6,22.3,29.99,NE,34,0.0,0.0,91,0.00,CLR,,0.02,WeatherDisplay:10.37,2013-02-05 04:41:00,
2013-02-04 23:42:00,24.6,22.3,29.99,NE,53,0.9,1.1,91,0.00,CLR,,0.02,WeatherDisplay:10.37,2013-02-05 04:42:00,
2013-02-04 23:45:00,24.6,22.3,29.98,ENE,63,3.2,4.0,91,0.00,CLR,,0.02,WeatherDisplay:10.37,2013-02-05 04:45:00,
2013-02-04 23:46:00,24.6,22.3,29.98,ENE,58,2.8,4.0,91,0.00,CLR,,0.02,WeatherDisplay:10.37,2013-02-05 04:46:00,
2013-02-04 23:47:00,24.6,22.3,29.99,ENE,64,1.7,3.5,91,0.00,CLR,,0.02,WeatherDisplay:10.37,2013-02-05 04:47:00,
2013-02-04 23:50:00,24.6,22.3,29.99,ENE,65,1.2,3.5,91,0.00,CLR,,0.02,WeatherDisplay:10.37,2013-02-05 04:50:00,
2013-02-04 23:51:00,24.6,22.3,29.99,ENE,63,1.5,2.3,91,0.00,CLR,,0.02,WeatherDisplay:10.37,2013-02-05 04:51:00,
2013-02-04 23:52:00,24.6,22.3,29.99,ENE,63,1.2,2.3,91,0.00,CLR,,0.02,WeatherDisplay:10.37,2013-02-05 04:52:00,
2013-02-04 23:55:00,24.6,22.3,29.99,NNE,17,0.9,2.3,91,0.00,CLR,,0.02,WeatherDisplay:10.37,2013-02-05 04:55:00,
2013-02-04 23:56:00,24.6,22.3,29.99,NNE,17,0.3,2.3,91,0.00,CLR,,0.02,WeatherDisplay:10.37,2013-02-05 04:56:00,
2013-02-04 23:57:00,24.6,22.3,29.99,NNE,17,0.7,2.3,91,0.00,CLR,,0.02,WeatherDisplay:10.37,2013-02-05 04:57:00,
2013-02-04 23:58:00,24.5,22.2,29.99,NNE,17,0.4,1.1,91,0.00,CLR,,0.02,WeatherDisplay:10.37,2013-02-05 04:58:00,